<?xml version="1.0" encoding="UTF-8" standalone="no" ?>
<gpx xmlns="http://www.topografix.com/GPX/1/1" xmlns:xsi="http://www.w3.org/2001/XMLSchema-instance" xsi:schemaLocation="http://www.topografix.com/GPX/1/1 http://www.topografix.com/GPX/1/1/gpx.xsd" version="1.1" creator="VisuGPX - https://www.visugpx.com">
  <metadata>
    <name>Régalon - Trou du Rat - Mérindol - 15247 - UtagawaVTT.com</name>
  </metadata>
  <trk>
    <name><![CDATA[Régalon - Trou du Rat - Mérindol - 15247 - UtagawaVTT.com]]></name>
    <trkseg>
      <trkpt lat="43.75918" lon="5.15667">
        <ele>119.84153</ele>
        <time>2017-05-21T08:11:29Z</time>
      </trkpt>
      <trkpt lat="43.75937" lon="5.15635">
        <ele>123.83094</ele>
        <time>2017-05-21T08:12:10Z</time>
      </trkpt>
      <trkpt lat="43.75958" lon="5.15503">
        <ele>133.428635</ele>
        <time>2017-05-21T08:13:10Z</time>
      </trkpt>
      <trkpt lat="43.75969" lon="5.15467">
        <ele>135.497101</ele>
        <time>2017-05-21T08:13:26Z</time>
      </trkpt>
      <trkpt lat="43.75994" lon="5.15424">
        <ele>136.041</ele>
        <time>2017-05-21T08:13:45Z</time>
      </trkpt>
      <trkpt lat="43.76022" lon="5.15386">
        <ele>137.204239</ele>
        <time>2017-05-21T08:14:02Z</time>
      </trkpt>
      <trkpt lat="43.76046" lon="5.1534">
        <ele>137.651794</ele>
        <time>2017-05-21T08:14:18Z</time>
      </trkpt>
      <trkpt lat="43.76083" lon="5.15217">
        <ele>147.710007</ele>
        <time>2017-05-21T08:14:54Z</time>
      </trkpt>
      <trkpt lat="43.76083" lon="5.15147">
        <ele>154.771957</ele>
        <time>2017-05-21T08:15:15Z</time>
      </trkpt>
      <trkpt lat="43.7611" lon="5.15074">
        <ele>156.680496</ele>
        <time>2017-05-21T08:15:44Z</time>
      </trkpt>
      <trkpt lat="43.76133" lon="5.15029">
        <ele>158.11351</ele>
        <time>2017-05-21T08:16:04Z</time>
      </trkpt>
      <trkpt lat="43.76156" lon="5.15003">
        <ele>159.095917</ele>
        <time>2017-05-21T08:16:19Z</time>
      </trkpt>
      <trkpt lat="43.76158" lon="5.14991">
        <ele>158.968002</ele>
        <time>2017-05-21T08:16:44Z</time>
      </trkpt>
      <trkpt lat="43.76189" lon="5.14956">
        <ele>159.480164</ele>
        <time>2017-05-21T08:17:01Z</time>
      </trkpt>
      <trkpt lat="43.76193" lon="5.14942">
        <ele>159.105804</ele>
        <time>2017-05-21T08:17:05Z</time>
      </trkpt>
      <trkpt lat="43.76191" lon="5.14899">
        <ele>157.476395</ele>
        <time>2017-05-21T08:17:15Z</time>
      </trkpt>
      <trkpt lat="43.76185" lon="5.14887">
        <ele>157.367599</ele>
        <time>2017-05-21T08:17:18Z</time>
      </trkpt>
      <trkpt lat="43.76165" lon="5.14877">
        <ele>158.598343</ele>
        <time>2017-05-21T08:17:24Z</time>
      </trkpt>
      <trkpt lat="43.76158" lon="5.14868">
        <ele>159.494507</ele>
        <time>2017-05-21T08:17:27Z</time>
      </trkpt>
      <trkpt lat="43.76156" lon="5.14842">
        <ele>161.106796</ele>
        <time>2017-05-21T08:17:33Z</time>
      </trkpt>
      <trkpt lat="43.76163" lon="5.14819">
        <ele>162.314499</ele>
        <time>2017-05-21T08:17:39Z</time>
      </trkpt>
      <trkpt lat="43.76238" lon="5.14653">
        <ele>172.247406</ele>
        <time>2017-05-21T08:18:22Z</time>
      </trkpt>
      <trkpt lat="43.76247" lon="5.14645">
        <ele>170.612808</ele>
        <time>2017-05-21T08:18:26Z</time>
      </trkpt>
      <trkpt lat="43.76308" lon="5.14663">
        <ele>165.443008</ele>
        <time>2017-05-21T08:18:48Z</time>
      </trkpt>
      <trkpt lat="43.76327" lon="5.14675">
        <ele>166.431244</ele>
        <time>2017-05-21T08:18:56Z</time>
      </trkpt>
      <trkpt lat="43.76347" lon="5.14679">
        <ele>167.590546</ele>
        <time>2017-05-21T08:19:04Z</time>
      </trkpt>
      <trkpt lat="43.76401" lon="5.1467">
        <ele>169.540421</ele>
        <time>2017-05-21T08:19:23Z</time>
      </trkpt>
      <trkpt lat="43.76449" lon="5.1464">
        <ele>169.642624</ele>
        <time>2017-05-21T08:19:36Z</time>
      </trkpt>
      <trkpt lat="43.76505" lon="5.14573">
        <ele>170.668793</ele>
        <time>2017-05-21T08:19:56Z</time>
      </trkpt>
      <trkpt lat="43.76566" lon="5.14552">
        <ele>174.036865</ele>
        <time>2017-05-21T08:20:07Z</time>
      </trkpt>
      <trkpt lat="43.76575" lon="5.1454">
        <ele>172.426071</ele>
        <time>2017-05-21T08:20:09Z</time>
      </trkpt>
      <trkpt lat="43.7658" lon="5.14525">
        <ele>169.931595</ele>
        <time>2017-05-21T08:20:11Z</time>
      </trkpt>
      <trkpt lat="43.76576" lon="5.14427">
        <ele>157.811157</ele>
        <time>2017-05-21T08:20:21Z</time>
      </trkpt>
      <trkpt lat="43.76578" lon="5.14388">
        <ele>156.668594</ele>
        <time>2017-05-21T08:20:25Z</time>
      </trkpt>
      <trkpt lat="43.76583" lon="5.14368">
        <ele>156.708298</ele>
        <time>2017-05-21T08:20:27Z</time>
      </trkpt>
      <trkpt lat="43.7658" lon="5.1435">
        <ele>156.605881</ele>
        <time>2017-05-21T08:20:29Z</time>
      </trkpt>
      <trkpt lat="43.76551" lon="5.14307">
        <ele>157.156631</ele>
        <time>2017-05-21T08:20:35Z</time>
      </trkpt>
      <trkpt lat="43.76508" lon="5.1426">
        <ele>152.64296</ele>
        <time>2017-05-21T08:20:43Z</time>
      </trkpt>
      <trkpt lat="43.76469" lon="5.14233">
        <ele>146.346252</ele>
        <time>2017-05-21T08:20:49Z</time>
      </trkpt>
      <trkpt lat="43.76464" lon="5.14219">
        <ele>145.637497</ele>
        <time>2017-05-21T08:20:52Z</time>
      </trkpt>
      <trkpt lat="43.76457" lon="5.14144">
        <ele>143.690109</ele>
        <time>2017-05-21T08:21:09Z</time>
      </trkpt>
      <trkpt lat="43.76448" lon="5.14119">
        <ele>143.040848</ele>
        <time>2017-05-21T08:21:21Z</time>
      </trkpt>
      <trkpt lat="43.76445" lon="5.14078">
        <ele>143.120804</ele>
        <time>2017-05-21T08:21:40Z</time>
      </trkpt>
      <trkpt lat="43.76474" lon="5.13983">
        <ele>151.169128</ele>
        <time>2017-05-21T08:22:06Z</time>
      </trkpt>
      <trkpt lat="43.76467" lon="5.13943">
        <ele>146.733307</ele>
        <time>2017-05-21T08:22:15Z</time>
      </trkpt>
      <trkpt lat="43.76471" lon="5.1391">
        <ele>145.176086</ele>
        <time>2017-05-21T08:22:21Z</time>
      </trkpt>
      <trkpt lat="43.76493" lon="5.13838">
        <ele>143.868286</ele>
        <time>2017-05-21T08:22:31Z</time>
      </trkpt>
      <trkpt lat="43.7651" lon="5.138">
        <ele>145.660797</ele>
        <time>2017-05-21T08:22:38Z</time>
      </trkpt>
      <trkpt lat="43.76515" lon="5.13769">
        <ele>144.433411</ele>
        <time>2017-05-21T08:22:43Z</time>
      </trkpt>
      <trkpt lat="43.76539" lon="5.13735">
        <ele>145.554672</ele>
        <time>2017-05-21T08:22:51Z</time>
      </trkpt>
      <trkpt lat="43.76563" lon="5.13692">
        <ele>146.442429</ele>
        <time>2017-05-21T08:22:59Z</time>
      </trkpt>
      <trkpt lat="43.76586" lon="5.13669">
        <ele>147.894424</ele>
        <time>2017-05-21T08:23:05Z</time>
      </trkpt>
      <trkpt lat="43.76674" lon="5.13612">
        <ele>148.127304</ele>
        <time>2017-05-21T08:23:25Z</time>
      </trkpt>
      <trkpt lat="43.76689" lon="5.13589">
        <ele>146.000931</ele>
        <time>2017-05-21T08:23:30Z</time>
      </trkpt>
      <trkpt lat="43.76717" lon="5.13568">
        <ele>146.688278</ele>
        <time>2017-05-21T08:23:40Z</time>
      </trkpt>
      <trkpt lat="43.76728" lon="5.13568">
        <ele>147.745148</ele>
        <time>2017-05-21T08:23:44Z</time>
      </trkpt>
      <trkpt lat="43.76751" lon="5.13597">
        <ele>149.958054</ele>
        <time>2017-05-21T08:23:56Z</time>
      </trkpt>
      <trkpt lat="43.76769" lon="5.13601">
        <ele>152.138306</ele>
        <time>2017-05-21T08:24:02Z</time>
      </trkpt>
      <trkpt lat="43.76799" lon="5.13594">
        <ele>157.924088</ele>
        <time>2017-05-21T08:24:14Z</time>
      </trkpt>
      <trkpt lat="43.76841" lon="5.13599">
        <ele>162.837494</ele>
        <time>2017-05-21T08:24:30Z</time>
      </trkpt>
      <trkpt lat="43.76891" lon="5.13592">
        <ele>165.995407</ele>
        <time>2017-05-21T08:25:07Z</time>
      </trkpt>
      <trkpt lat="43.76908" lon="5.13577">
        <ele>164.251221</ele>
        <time>2017-05-21T08:25:17Z</time>
      </trkpt>
      <trkpt lat="43.76919" lon="5.13556">
        <ele>159.415222</ele>
        <time>2017-05-21T08:25:27Z</time>
      </trkpt>
      <trkpt lat="43.76959" lon="5.13552">
        <ele>165.027542</ele>
        <time>2017-05-21T08:25:47Z</time>
      </trkpt>
      <trkpt lat="43.76977" lon="5.13541">
        <ele>169.580597</ele>
        <time>2017-05-21T08:25:56Z</time>
      </trkpt>
      <trkpt lat="43.76987" lon="5.13543">
        <ele>171.070755</ele>
        <time>2017-05-21T08:26:02Z</time>
      </trkpt>
      <trkpt lat="43.76993" lon="5.13554">
        <ele>169.346252</ele>
        <time>2017-05-21T08:26:08Z</time>
      </trkpt>
      <trkpt lat="43.76999" lon="5.13595">
        <ele>175.011871</ele>
        <time>2017-05-21T08:26:20Z</time>
      </trkpt>
      <trkpt lat="43.77009" lon="5.1362">
        <ele>178.957214</ele>
        <time>2017-05-21T08:26:28Z</time>
      </trkpt>
      <trkpt lat="43.7703" lon="5.13654">
        <ele>179.716019</ele>
        <time>2017-05-21T08:26:40Z</time>
      </trkpt>
      <trkpt lat="43.77039" lon="5.13661">
        <ele>180.109299</ele>
        <time>2017-05-21T08:26:44Z</time>
      </trkpt>
      <trkpt lat="43.77061" lon="5.13662">
        <ele>180.063065</ele>
        <time>2017-05-21T08:26:52Z</time>
      </trkpt>
      <trkpt lat="43.77092" lon="5.13649">
        <ele>179.776169</ele>
        <time>2017-05-21T08:27:06Z</time>
      </trkpt>
      <trkpt lat="43.77132" lon="5.13606">
        <ele>178.669998</ele>
        <time>2017-05-21T08:27:37Z</time>
      </trkpt>
      <trkpt lat="43.77142" lon="5.13602">
        <ele>179.559998</ele>
        <time>2017-05-21T08:27:41Z</time>
      </trkpt>
      <trkpt lat="43.77174" lon="5.13607">
        <ele>183.650131</ele>
        <time>2017-05-21T08:27:53Z</time>
      </trkpt>
      <trkpt lat="43.77196" lon="5.13603">
        <ele>187.001495</ele>
        <time>2017-05-21T08:28:01Z</time>
      </trkpt>
      <trkpt lat="43.77224" lon="5.13591">
        <ele>190.007263</ele>
        <time>2017-05-21T08:28:11Z</time>
      </trkpt>
      <trkpt lat="43.77244" lon="5.13591">
        <ele>192.316803</ele>
        <time>2017-05-21T08:28:21Z</time>
      </trkpt>
      <trkpt lat="43.77264" lon="5.136">
        <ele>194.860123</ele>
        <time>2017-05-21T08:28:44Z</time>
      </trkpt>
      <trkpt lat="43.77287" lon="5.13626">
        <ele>194.475494</ele>
        <time>2017-05-21T08:28:59Z</time>
      </trkpt>
      <trkpt lat="43.77294" lon="5.13653">
        <ele>195.444931</ele>
        <time>2017-05-21T08:29:10Z</time>
      </trkpt>
      <trkpt lat="43.77311" lon="5.13666">
        <ele>198.570374</ele>
        <time>2017-05-21T08:29:20Z</time>
      </trkpt>
      <trkpt lat="43.77321" lon="5.13661">
        <ele>200.201584</ele>
        <time>2017-05-21T08:29:25Z</time>
      </trkpt>
      <trkpt lat="43.77343" lon="5.13603">
        <ele>199.434128</ele>
        <time>2017-05-21T08:29:51Z</time>
      </trkpt>
      <trkpt lat="43.7735" lon="5.13575">
        <ele>196.388245</ele>
        <time>2017-05-21T08:30:03Z</time>
      </trkpt>
      <trkpt lat="43.77357" lon="5.13523">
        <ele>203.571472</ele>
        <time>2017-05-21T08:30:28Z</time>
      </trkpt>
      <trkpt lat="43.77362" lon="5.13512">
        <ele>205.960556</ele>
        <time>2017-05-21T08:30:34Z</time>
      </trkpt>
      <trkpt lat="43.77379" lon="5.13502">
        <ele>210.535828</ele>
        <time>2017-05-21T08:31:00Z</time>
      </trkpt>
      <trkpt lat="43.77382" lon="5.13489">
        <ele>215.029068</ele>
        <time>2017-05-21T08:31:23Z</time>
      </trkpt>
      <trkpt lat="43.77388" lon="5.13478">
        <ele>217.665115</ele>
        <time>2017-05-21T08:31:40Z</time>
      </trkpt>
      <trkpt lat="43.77397" lon="5.13473">
        <ele>217.681183</ele>
        <time>2017-05-21T08:31:47Z</time>
      </trkpt>
      <trkpt lat="43.77404" lon="5.13482">
        <ele>216.747284</ele>
        <time>2017-05-21T08:31:55Z</time>
      </trkpt>
      <trkpt lat="43.77424" lon="5.13477">
        <ele>222.565872</ele>
        <time>2017-05-21T08:32:08Z</time>
      </trkpt>
      <trkpt lat="43.77442" lon="5.13485">
        <ele>225.600281</ele>
        <time>2017-05-21T08:32:23Z</time>
      </trkpt>
      <trkpt lat="43.77454" lon="5.13521">
        <ele>223.284256</ele>
        <time>2017-05-21T08:32:42Z</time>
      </trkpt>
      <trkpt lat="43.77469" lon="5.13542">
        <ele>231.692657</ele>
        <time>2017-05-21T08:32:52Z</time>
      </trkpt>
      <trkpt lat="43.77486" lon="5.13553">
        <ele>235.09465</ele>
        <time>2017-05-21T08:33:00Z</time>
      </trkpt>
      <trkpt lat="43.77505" lon="5.13557">
        <ele>237.802277</ele>
        <time>2017-05-21T08:33:10Z</time>
      </trkpt>
      <trkpt lat="43.77513" lon="5.13564">
        <ele>239.308304</ele>
        <time>2017-05-21T08:33:14Z</time>
      </trkpt>
      <trkpt lat="43.77523" lon="5.13565">
        <ele>239.949768</ele>
        <time>2017-05-21T08:33:19Z</time>
      </trkpt>
      <trkpt lat="43.77533" lon="5.13561">
        <ele>240.49649</ele>
        <time>2017-05-21T08:33:25Z</time>
      </trkpt>
      <trkpt lat="43.77572" lon="5.13566">
        <ele>241.733032</ele>
        <time>2017-05-21T08:33:52Z</time>
      </trkpt>
      <trkpt lat="43.77589" lon="5.13574">
        <ele>240.361176</ele>
        <time>2017-05-21T08:34:05Z</time>
      </trkpt>
      <trkpt lat="43.77596" lon="5.13565">
        <ele>243.758575</ele>
        <time>2017-05-21T08:34:16Z</time>
      </trkpt>
      <trkpt lat="43.77604" lon="5.1357">
        <ele>242.620132</ele>
        <time>2017-05-21T08:34:40Z</time>
      </trkpt>
      <trkpt lat="43.77617" lon="5.13591">
        <ele>236.19075</ele>
        <time>2017-05-21T08:34:51Z</time>
      </trkpt>
      <trkpt lat="43.77646" lon="5.13606">
        <ele>242.897675</ele>
        <time>2017-05-21T08:35:13Z</time>
      </trkpt>
      <trkpt lat="43.77695" lon="5.13616">
        <ele>248.943665</ele>
        <time>2017-05-21T08:35:53Z</time>
      </trkpt>
      <trkpt lat="43.77713" lon="5.13607">
        <ele>247.684372</ele>
        <time>2017-05-21T08:36:06Z</time>
      </trkpt>
      <trkpt lat="43.77751" lon="5.13618">
        <ele>254.196594</ele>
        <time>2017-05-21T08:36:30Z</time>
      </trkpt>
      <trkpt lat="43.77791" lon="5.13614">
        <ele>255.018906</ele>
        <time>2017-05-21T08:36:55Z</time>
      </trkpt>
      <trkpt lat="43.77827" lon="5.13589">
        <ele>264.998688</ele>
        <time>2017-05-21T08:37:19Z</time>
      </trkpt>
      <trkpt lat="43.77838" lon="5.13588">
        <ele>269.090179</ele>
        <time>2017-05-21T08:37:26Z</time>
      </trkpt>
      <trkpt lat="43.77847" lon="5.13594">
        <ele>268.920654</ele>
        <time>2017-05-21T08:37:31Z</time>
      </trkpt>
      <trkpt lat="43.77858" lon="5.13614">
        <ele>270.532501</ele>
        <time>2017-05-21T08:37:41Z</time>
      </trkpt>
      <trkpt lat="43.77874" lon="5.13634">
        <ele>275.525299</ele>
        <time>2017-05-21T08:37:52Z</time>
      </trkpt>
      <trkpt lat="43.77879" lon="5.13645">
        <ele>276.106262</ele>
        <time>2017-05-21T08:37:59Z</time>
      </trkpt>
      <trkpt lat="43.77888" lon="5.13651">
        <ele>276.1875</ele>
        <time>2017-05-21T08:38:06Z</time>
      </trkpt>
      <trkpt lat="43.77918" lon="5.13654">
        <ele>278.514313</ele>
        <time>2017-05-21T08:38:26Z</time>
      </trkpt>
      <trkpt lat="43.77926" lon="5.13663">
        <ele>279.196747</ele>
        <time>2017-05-21T08:38:35Z</time>
      </trkpt>
      <trkpt lat="43.77936" lon="5.1366">
        <ele>280.245483</ele>
        <time>2017-05-21T08:38:40Z</time>
      </trkpt>
      <trkpt lat="43.77942" lon="5.13636">
        <ele>279.318573</ele>
        <time>2017-05-21T08:38:53Z</time>
      </trkpt>
      <trkpt lat="43.77945" lon="5.1361">
        <ele>276.928192</ele>
        <time>2017-05-21T08:39:05Z</time>
      </trkpt>
      <trkpt lat="43.77955" lon="5.13604">
        <ele>275.996246</ele>
        <time>2017-05-21T08:39:14Z</time>
      </trkpt>
      <trkpt lat="43.77964" lon="5.13608">
        <ele>272.467712</ele>
        <time>2017-05-21T08:39:20Z</time>
      </trkpt>
      <trkpt lat="43.78014" lon="5.13652">
        <ele>278.325165</ele>
        <time>2017-05-21T08:39:49Z</time>
      </trkpt>
      <trkpt lat="43.78025" lon="5.13677">
        <ele>277.646484</ele>
        <time>2017-05-21T08:39:58Z</time>
      </trkpt>
      <trkpt lat="43.78028" lon="5.13706">
        <ele>283.226868</ele>
        <time>2017-05-21T08:40:08Z</time>
      </trkpt>
      <trkpt lat="43.78035" lon="5.13716">
        <ele>284.535187</ele>
        <time>2017-05-21T08:40:12Z</time>
      </trkpt>
      <trkpt lat="43.78065" lon="5.1372">
        <ele>282.993988</ele>
        <time>2017-05-21T08:40:23Z</time>
      </trkpt>
      <trkpt lat="43.78074" lon="5.13726">
        <ele>283.968872</ele>
        <time>2017-05-21T08:40:27Z</time>
      </trkpt>
      <trkpt lat="43.78094" lon="5.13762">
        <ele>286.259094</ele>
        <time>2017-05-21T08:40:39Z</time>
      </trkpt>
      <trkpt lat="43.7813" lon="5.13811">
        <ele>284.493835</ele>
        <time>2017-05-21T08:40:58Z</time>
      </trkpt>
      <trkpt lat="43.78145" lon="5.1385">
        <ele>288.253113</ele>
        <time>2017-05-21T08:41:10Z</time>
      </trkpt>
      <trkpt lat="43.78158" lon="5.13871">
        <ele>290.641602</ele>
        <time>2017-05-21T08:41:19Z</time>
      </trkpt>
      <trkpt lat="43.78168" lon="5.1387">
        <ele>293.603607</ele>
        <time>2017-05-21T08:41:50Z</time>
      </trkpt>
      <trkpt lat="43.78193" lon="5.13832">
        <ele>294.341553</ele>
        <time>2017-05-21T08:42:10Z</time>
      </trkpt>
      <trkpt lat="43.78202" lon="5.13795">
        <ele>292.16922</ele>
        <time>2017-05-21T08:42:25Z</time>
      </trkpt>
      <trkpt lat="43.78218" lon="5.13762">
        <ele>296.805542</ele>
        <time>2017-05-21T08:42:41Z</time>
      </trkpt>
      <trkpt lat="43.78242" lon="5.13742">
        <ele>295.470001</ele>
        <time>2017-05-21T08:42:57Z</time>
      </trkpt>
      <trkpt lat="43.78246" lon="5.13729">
        <ele>298.359985</ele>
        <time>2017-05-21T08:43:03Z</time>
      </trkpt>
      <trkpt lat="43.78245" lon="5.13715">
        <ele>301.929993</ele>
        <time>2017-05-21T08:43:10Z</time>
      </trkpt>
      <trkpt lat="43.78227" lon="5.13725">
        <ele>301.554993</ele>
        <time>2017-05-21T08:43:23Z</time>
      </trkpt>
      <trkpt lat="43.78235" lon="5.13685">
        <ele>310.975006</ele>
        <time>2017-05-21T08:43:48Z</time>
      </trkpt>
      <trkpt lat="43.78244" lon="5.13591">
        <ele>319.098053</ele>
        <time>2017-05-21T08:44:34Z</time>
      </trkpt>
      <trkpt lat="43.78253" lon="5.1359">
        <ele>317.801788</ele>
        <time>2017-05-21T08:44:44Z</time>
      </trkpt>
      <trkpt lat="43.78267" lon="5.13609">
        <ele>319.063263</ele>
        <time>2017-05-21T08:44:57Z</time>
      </trkpt>
      <trkpt lat="43.78275" lon="5.13632">
        <ele>318.612488</ele>
        <time>2017-05-21T08:45:09Z</time>
      </trkpt>
      <trkpt lat="43.78282" lon="5.1364">
        <ele>319.674988</ele>
        <time>2017-05-21T08:45:16Z</time>
      </trkpt>
      <trkpt lat="43.78304" lon="5.13684">
        <ele>318.288757</ele>
        <time>2017-05-21T08:46:02Z</time>
      </trkpt>
      <trkpt lat="43.78308" lon="5.13645">
        <ele>322.993347</ele>
        <time>2017-05-21T08:46:45Z</time>
      </trkpt>
      <trkpt lat="43.78293" lon="5.13566">
        <ele>330.721558</ele>
        <time>2017-05-21T08:47:41Z</time>
      </trkpt>
      <trkpt lat="43.78285" lon="5.13541">
        <ele>333.67334</ele>
        <time>2017-05-21T08:47:54Z</time>
      </trkpt>
      <trkpt lat="43.78274" lon="5.13489">
        <ele>341.753937</ele>
        <time>2017-05-21T08:48:42Z</time>
      </trkpt>
      <trkpt lat="43.7826" lon="5.13471">
        <ele>341.15271</ele>
        <time>2017-05-21T08:48:56Z</time>
      </trkpt>
      <trkpt lat="43.78256" lon="5.1346">
        <ele>342.357361</ele>
        <time>2017-05-21T08:49:03Z</time>
      </trkpt>
      <trkpt lat="43.78266" lon="5.13464">
        <ele>343.563416</ele>
        <time>2017-05-21T08:49:10Z</time>
      </trkpt>
      <trkpt lat="43.78281" lon="5.13482">
        <ele>344.233734</ele>
        <time>2017-05-21T08:49:23Z</time>
      </trkpt>
      <trkpt lat="43.78281" lon="5.13469">
        <ele>346.077515</ele>
        <time>2017-05-21T08:50:03Z</time>
      </trkpt>
      <trkpt lat="43.7827" lon="5.13447">
        <ele>346.938751</ele>
        <time>2017-05-21T08:50:16Z</time>
      </trkpt>
      <trkpt lat="43.78264" lon="5.13423">
        <ele>347.887939</ele>
        <time>2017-05-21T08:50:28Z</time>
      </trkpt>
      <trkpt lat="43.78264" lon="5.13409">
        <ele>348.13858</ele>
        <time>2017-05-21T08:50:35Z</time>
      </trkpt>
      <trkpt lat="43.78271" lon="5.13399">
        <ele>349.281586</ele>
        <time>2017-05-21T08:50:41Z</time>
      </trkpt>
      <trkpt lat="43.783" lon="5.13389">
        <ele>353.038208</ele>
        <time>2017-05-21T08:50:58Z</time>
      </trkpt>
      <trkpt lat="43.7839" lon="5.13307">
        <ele>355.902802</ele>
        <time>2017-05-21T08:51:33Z</time>
      </trkpt>
      <trkpt lat="43.78395" lon="5.13295">
        <ele>355.331238</ele>
        <time>2017-05-21T08:51:37Z</time>
      </trkpt>
      <trkpt lat="43.78473" lon="5.13211">
        <ele>354.144501</ele>
        <time>2017-05-21T08:52:07Z</time>
      </trkpt>
      <trkpt lat="43.78522" lon="5.13182">
        <ele>356.452911</ele>
        <time>2017-05-21T08:52:23Z</time>
      </trkpt>
      <trkpt lat="43.78555" lon="5.1314">
        <ele>357.141998</ele>
        <time>2017-05-21T08:52:39Z</time>
      </trkpt>
      <trkpt lat="43.78584" lon="5.13121">
        <ele>359.966187</ele>
        <time>2017-05-21T08:52:51Z</time>
      </trkpt>
      <trkpt lat="43.78594" lon="5.1312">
        <ele>360.752289</ele>
        <time>2017-05-21T08:52:55Z</time>
      </trkpt>
      <trkpt lat="43.78612" lon="5.13106">
        <ele>362.274567</ele>
        <time>2017-05-21T08:53:05Z</time>
      </trkpt>
      <trkpt lat="43.78627" lon="5.13086">
        <ele>363.457886</ele>
        <time>2017-05-21T08:53:16Z</time>
      </trkpt>
      <trkpt lat="43.78638" lon="5.13062">
        <ele>364.081177</ele>
        <time>2017-05-21T08:53:29Z</time>
      </trkpt>
      <trkpt lat="43.78643" lon="5.13037">
        <ele>364.099457</ele>
        <time>2017-05-21T08:53:41Z</time>
      </trkpt>
      <trkpt lat="43.78642" lon="5.13011">
        <ele>363.262634</ele>
        <time>2017-05-21T08:54:26Z</time>
      </trkpt>
      <trkpt lat="43.78644" lon="5.12998">
        <ele>362.629669</ele>
        <time>2017-05-21T08:54:29Z</time>
      </trkpt>
      <trkpt lat="43.7866" lon="5.12979">
        <ele>362.028809</ele>
        <time>2017-05-21T08:54:34Z</time>
      </trkpt>
      <trkpt lat="43.78705" lon="5.12965">
        <ele>362.842072</ele>
        <time>2017-05-21T08:54:46Z</time>
      </trkpt>
      <trkpt lat="43.78751" lon="5.12929">
        <ele>363.065002</ele>
        <time>2017-05-21T08:55:01Z</time>
      </trkpt>
      <trkpt lat="43.78784" lon="5.1289">
        <ele>364.295013</ele>
        <time>2017-05-21T08:55:13Z</time>
      </trkpt>
      <trkpt lat="43.78793" lon="5.12885">
        <ele>365.160004</ele>
        <time>2017-05-21T08:55:15Z</time>
      </trkpt>
      <trkpt lat="43.78802" lon="5.12887">
        <ele>365.76001</ele>
        <time>2017-05-21T08:55:19Z</time>
      </trkpt>
      <trkpt lat="43.78811" lon="5.1288">
        <ele>366.815399</ele>
        <time>2017-05-21T08:55:25Z</time>
      </trkpt>
      <trkpt lat="43.78821" lon="5.12859">
        <ele>369.467712</ele>
        <time>2017-05-21T08:55:35Z</time>
      </trkpt>
      <trkpt lat="43.78849" lon="5.12846">
        <ele>374.180237</ele>
        <time>2017-05-21T08:55:51Z</time>
      </trkpt>
      <trkpt lat="43.78879" lon="5.12847">
        <ele>377.717499</ele>
        <time>2017-05-21T08:56:08Z</time>
      </trkpt>
      <trkpt lat="43.78906" lon="5.12834">
        <ele>380.435791</ele>
        <time>2017-05-21T08:56:26Z</time>
      </trkpt>
      <trkpt lat="43.78923" lon="5.12785">
        <ele>382.5625</ele>
        <time>2017-05-21T08:56:55Z</time>
      </trkpt>
      <trkpt lat="43.78948" lon="5.1277">
        <ele>385.289398</ele>
        <time>2017-05-21T08:57:17Z</time>
      </trkpt>
      <trkpt lat="43.78951" lon="5.12758">
        <ele>385.507507</ele>
        <time>2017-05-21T08:57:24Z</time>
      </trkpt>
      <trkpt lat="43.78948" lon="5.12718">
        <ele>384.637726</ele>
        <time>2017-05-21T08:57:40Z</time>
      </trkpt>
      <trkpt lat="43.78953" lon="5.12707">
        <ele>384.149994</ele>
        <time>2017-05-21T08:57:47Z</time>
      </trkpt>
      <trkpt lat="43.78971" lon="5.12717">
        <ele>385.901062</ele>
        <time>2017-05-21T08:58:00Z</time>
      </trkpt>
      <trkpt lat="43.7898" lon="5.12711">
        <ele>385.847076</ele>
        <time>2017-05-21T08:58:05Z</time>
      </trkpt>
      <trkpt lat="43.7899" lon="5.12713">
        <ele>386.521484</ele>
        <time>2017-05-21T08:58:10Z</time>
      </trkpt>
      <trkpt lat="43.79059" lon="5.12699">
        <ele>385.201599</ele>
        <time>2017-05-21T08:58:42Z</time>
      </trkpt>
      <trkpt lat="43.79106" lon="5.12709">
        <ele>385.778748</ele>
        <time>2017-05-21T08:59:04Z</time>
      </trkpt>
      <trkpt lat="43.79122" lon="5.12723">
        <ele>388.198761</ele>
        <time>2017-05-21T08:59:14Z</time>
      </trkpt>
      <trkpt lat="43.79142" lon="5.12753">
        <ele>392.815216</ele>
        <time>2017-05-21T08:59:29Z</time>
      </trkpt>
      <trkpt lat="43.79168" lon="5.12826">
        <ele>399.793823</ele>
        <time>2017-05-21T09:00:10Z</time>
      </trkpt>
      <trkpt lat="43.79208" lon="5.12825">
        <ele>401.152496</ele>
        <time>2017-05-21T09:00:31Z</time>
      </trkpt>
      <trkpt lat="43.79227" lon="5.12828">
        <ele>403.036865</ele>
        <time>2017-05-21T09:00:45Z</time>
      </trkpt>
      <trkpt lat="43.79207" lon="5.12858">
        <ele>404.357513</ele>
        <time>2017-05-21T09:01:06Z</time>
      </trkpt>
      <trkpt lat="43.79202" lon="5.1287">
        <ele>404.825012</ele>
        <time>2017-05-21T09:01:12Z</time>
      </trkpt>
      <trkpt lat="43.792" lon="5.12898">
        <ele>405.632507</ele>
        <time>2017-05-21T09:01:48Z</time>
      </trkpt>
      <trkpt lat="43.79206" lon="5.12926">
        <ele>406.661407</ele>
        <time>2017-05-21T09:02:00Z</time>
      </trkpt>
      <trkpt lat="43.79212" lon="5.12936">
        <ele>406.680359</ele>
        <time>2017-05-21T09:02:05Z</time>
      </trkpt>
      <trkpt lat="43.79236" lon="5.12957">
        <ele>408.525085</ele>
        <time>2017-05-21T09:02:25Z</time>
      </trkpt>
      <trkpt lat="43.79254" lon="5.12968">
        <ele>410.247009</ele>
        <time>2017-05-21T09:02:40Z</time>
      </trkpt>
      <trkpt lat="43.79285" lon="5.12971">
        <ele>412.918762</ele>
        <time>2017-05-21T09:03:00Z</time>
      </trkpt>
      <trkpt lat="43.79313" lon="5.1298">
        <ele>416.101318</ele>
        <time>2017-05-21T09:03:16Z</time>
      </trkpt>
      <trkpt lat="43.79405" lon="5.13024">
        <ele>430.216248</ele>
        <time>2017-05-21T09:04:14Z</time>
      </trkpt>
      <trkpt lat="43.79426" lon="5.13053">
        <ele>433.701111</ele>
        <time>2017-05-21T09:04:32Z</time>
      </trkpt>
      <trkpt lat="43.79453" lon="5.1306">
        <ele>436.809204</ele>
        <time>2017-05-21T09:04:50Z</time>
      </trkpt>
      <trkpt lat="43.79513" lon="5.13048">
        <ele>443.116943</ele>
        <time>2017-05-21T09:05:22Z</time>
      </trkpt>
      <trkpt lat="43.79522" lon="5.13054">
        <ele>443.944885</ele>
        <time>2017-05-21T09:05:27Z</time>
      </trkpt>
      <trkpt lat="43.79527" lon="5.13066">
        <ele>445.595673</ele>
        <time>2017-05-21T09:05:32Z</time>
      </trkpt>
      <trkpt lat="43.79529" lon="5.13096">
        <ele>447.214172</ele>
        <time>2017-05-21T09:05:42Z</time>
      </trkpt>
      <trkpt lat="43.79518" lon="5.13138">
        <ele>443.362</ele>
        <time>2017-05-21T09:05:52Z</time>
      </trkpt>
      <trkpt lat="43.79519" lon="5.13154">
        <ele>442.366241</ele>
        <time>2017-05-21T09:05:55Z</time>
      </trkpt>
      <trkpt lat="43.79549" lon="5.13219">
        <ele>453.958374</ele>
        <time>2017-05-21T09:06:10Z</time>
      </trkpt>
      <trkpt lat="43.79546" lon="5.13232">
        <ele>453.245178</ele>
        <time>2017-05-21T09:06:12Z</time>
      </trkpt>
      <trkpt lat="43.79537" lon="5.13239">
        <ele>450.490631</ele>
        <time>2017-05-21T09:06:14Z</time>
      </trkpt>
      <trkpt lat="43.79482" lon="5.13254">
        <ele>438.604156</ele>
        <time>2017-05-21T09:06:27Z</time>
      </trkpt>
      <trkpt lat="43.79462" lon="5.13267">
        <ele>435.491302</ele>
        <time>2017-05-21T09:06:33Z</time>
      </trkpt>
      <trkpt lat="43.79447" lon="5.13289">
        <ele>432.114868</ele>
        <time>2017-05-21T09:06:39Z</time>
      </trkpt>
      <trkpt lat="43.79447" lon="5.13308">
        <ele>432.333374</ele>
        <time>2017-05-21T09:06:42Z</time>
      </trkpt>
      <trkpt lat="43.79478" lon="5.13374">
        <ele>435.428192</ele>
        <time>2017-05-21T09:06:50Z</time>
      </trkpt>
      <trkpt lat="43.79506" lon="5.13422">
        <ele>438.885406</ele>
        <time>2017-05-21T09:06:56Z</time>
      </trkpt>
      <trkpt lat="43.79508" lon="5.13436">
        <ele>437.272369</ele>
        <time>2017-05-21T09:06:58Z</time>
      </trkpt>
      <trkpt lat="43.79502" lon="5.13448">
        <ele>439.699371</ele>
        <time>2017-05-21T09:07:00Z</time>
      </trkpt>
      <trkpt lat="43.79493" lon="5.13454">
        <ele>439.807587</ele>
        <time>2017-05-21T09:07:02Z</time>
      </trkpt>
      <trkpt lat="43.79453" lon="5.13456">
        <ele>430.289886</ele>
        <time>2017-05-21T09:07:10Z</time>
      </trkpt>
      <trkpt lat="43.79432" lon="5.1347">
        <ele>426.014038</ele>
        <time>2017-05-21T09:07:16Z</time>
      </trkpt>
      <trkpt lat="43.79423" lon="5.13481">
        <ele>425.124878</ele>
        <time>2017-05-21T09:07:19Z</time>
      </trkpt>
      <trkpt lat="43.79412" lon="5.13512">
        <ele>425.422516</ele>
        <time>2017-05-21T09:07:25Z</time>
      </trkpt>
      <trkpt lat="43.79403" lon="5.13526">
        <ele>423.002502</ele>
        <time>2017-05-21T09:07:28Z</time>
      </trkpt>
      <trkpt lat="43.79397" lon="5.13541">
        <ele>422.670013</ele>
        <time>2017-05-21T09:07:31Z</time>
      </trkpt>
      <trkpt lat="43.79397" lon="5.13558">
        <ele>423.834686</ele>
        <time>2017-05-21T09:07:34Z</time>
      </trkpt>
      <trkpt lat="43.79405" lon="5.13588">
        <ele>423.331268</ele>
        <time>2017-05-21T09:07:40Z</time>
      </trkpt>
      <trkpt lat="43.79436" lon="5.13641">
        <ele>435.651917</ele>
        <time>2017-05-21T09:07:52Z</time>
      </trkpt>
      <trkpt lat="43.79441" lon="5.13666">
        <ele>437.152313</ele>
        <time>2017-05-21T09:07:56Z</time>
      </trkpt>
      <trkpt lat="43.79437" lon="5.13677">
        <ele>435.03656</ele>
        <time>2017-05-21T09:07:58Z</time>
      </trkpt>
      <trkpt lat="43.7941" lon="5.13702">
        <ele>433.630188</ele>
        <time>2017-05-21T09:08:09Z</time>
      </trkpt>
      <trkpt lat="43.7939" lon="5.13731">
        <ele>439.442078</ele>
        <time>2017-05-21T09:08:25Z</time>
      </trkpt>
      <trkpt lat="43.79381" lon="5.13737">
        <ele>439.199768</ele>
        <time>2017-05-21T09:08:30Z</time>
      </trkpt>
      <trkpt lat="43.79345" lon="5.13727">
        <ele>433.325012</ele>
        <time>2017-05-21T09:08:50Z</time>
      </trkpt>
      <trkpt lat="43.79316" lon="5.13723">
        <ele>432.725098</ele>
        <time>2017-05-21T09:09:05Z</time>
      </trkpt>
      <trkpt lat="43.79298" lon="5.13714">
        <ele>430.251038</ele>
        <time>2017-05-21T09:09:15Z</time>
      </trkpt>
      <trkpt lat="43.79287" lon="5.13713">
        <ele>430.276031</ele>
        <time>2017-05-21T09:09:20Z</time>
      </trkpt>
      <trkpt lat="43.7928" lon="5.13722">
        <ele>432.625458</ele>
        <time>2017-05-21T09:09:24Z</time>
      </trkpt>
      <trkpt lat="43.79279" lon="5.13763">
        <ele>441.826782</ele>
        <time>2017-05-21T09:09:38Z</time>
      </trkpt>
      <trkpt lat="43.79271" lon="5.13786">
        <ele>444.353119</ele>
        <time>2017-05-21T09:09:46Z</time>
      </trkpt>
      <trkpt lat="43.79253" lon="5.13804">
        <ele>441.771698</ele>
        <time>2017-05-21T09:09:54Z</time>
      </trkpt>
      <trkpt lat="43.79232" lon="5.13817">
        <ele>436.159302</ele>
        <time>2017-05-21T09:10:02Z</time>
      </trkpt>
      <trkpt lat="43.79225" lon="5.13827">
        <ele>435.160339</ele>
        <time>2017-05-21T09:10:06Z</time>
      </trkpt>
      <trkpt lat="43.79233" lon="5.13883">
        <ele>442.58493</ele>
        <time>2017-05-21T09:10:22Z</time>
      </trkpt>
      <trkpt lat="43.7923" lon="5.13928">
        <ele>441.31015</ele>
        <time>2017-05-21T09:10:34Z</time>
      </trkpt>
      <trkpt lat="43.79232" lon="5.13943">
        <ele>440.191254</ele>
        <time>2017-05-21T09:10:38Z</time>
      </trkpt>
      <trkpt lat="43.79271" lon="5.1401">
        <ele>451.529999</ele>
        <time>2017-05-21T09:11:01Z</time>
      </trkpt>
      <trkpt lat="43.79273" lon="5.14026">
        <ele>451.273224</ele>
        <time>2017-05-21T09:11:05Z</time>
      </trkpt>
      <trkpt lat="43.79249" lon="5.14098">
        <ele>441.105804</ele>
        <time>2017-05-21T09:11:20Z</time>
      </trkpt>
      <trkpt lat="43.79246" lon="5.14147">
        <ele>440.85553</ele>
        <time>2017-05-21T09:11:28Z</time>
      </trkpt>
      <trkpt lat="43.79237" lon="5.1418">
        <ele>438.297913</ele>
        <time>2017-05-21T09:11:34Z</time>
      </trkpt>
      <trkpt lat="43.79216" lon="5.14217">
        <ele>436.975006</ele>
        <time>2017-05-21T09:11:41Z</time>
      </trkpt>
      <trkpt lat="43.79197" lon="5.1423">
        <ele>434.315063</ele>
        <time>2017-05-21T09:11:45Z</time>
      </trkpt>
      <trkpt lat="43.79166" lon="5.1422">
        <ele>427.714996</ele>
        <time>2017-05-21T09:11:51Z</time>
      </trkpt>
      <trkpt lat="43.7912" lon="5.14181">
        <ele>417.976807</ele>
        <time>2017-05-21T09:12:06Z</time>
      </trkpt>
      <trkpt lat="43.79042" lon="5.14171">
        <ele>413.842102</ele>
        <time>2017-05-21T09:12:22Z</time>
      </trkpt>
      <trkpt lat="43.79033" lon="5.14177">
        <ele>412.77536</ele>
        <time>2017-05-21T09:12:24Z</time>
      </trkpt>
      <trkpt lat="43.79008" lon="5.1425">
        <ele>410.106659</ele>
        <time>2017-05-21T09:12:37Z</time>
      </trkpt>
      <trkpt lat="43.78975" lon="5.14292">
        <ele>406.12326</ele>
        <time>2017-05-21T09:12:51Z</time>
      </trkpt>
      <trkpt lat="43.78963" lon="5.14294">
        <ele>404.431122</ele>
        <time>2017-05-21T09:13:18Z</time>
      </trkpt>
      <trkpt lat="43.78884" lon="5.14263">
        <ele>399.405212</ele>
        <time>2017-05-21T09:13:34Z</time>
      </trkpt>
      <trkpt lat="43.78841" lon="5.14252">
        <ele>391.809296</ele>
        <time>2017-05-21T09:13:48Z</time>
      </trkpt>
      <trkpt lat="43.78819" lon="5.14242">
        <ele>386.07135</ele>
        <time>2017-05-21T09:13:54Z</time>
      </trkpt>
      <trkpt lat="43.78792" lon="5.14219">
        <ele>381.115601</ele>
        <time>2017-05-21T09:14:03Z</time>
      </trkpt>
      <trkpt lat="43.78746" lon="5.14167">
        <ele>371.69162</ele>
        <time>2017-05-21T09:14:19Z</time>
      </trkpt>
      <trkpt lat="43.78751" lon="5.14153">
        <ele>371.432617</ele>
        <time>2017-05-21T09:14:26Z</time>
      </trkpt>
      <trkpt lat="43.78789" lon="5.14119">
        <ele>367.840332</ele>
        <time>2017-05-21T09:14:47Z</time>
      </trkpt>
      <trkpt lat="43.78799" lon="5.14115">
        <ele>366.57605</ele>
        <time>2017-05-21T09:14:50Z</time>
      </trkpt>
      <trkpt lat="43.78819" lon="5.14117">
        <ele>366.410492</ele>
        <time>2017-05-21T09:14:56Z</time>
      </trkpt>
      <trkpt lat="43.78827" lon="5.14112">
        <ele>367.092346</ele>
        <time>2017-05-21T09:15:01Z</time>
      </trkpt>
      <trkpt lat="43.78808" lon="5.14077">
        <ele>360.602509</ele>
        <time>2017-05-21T09:15:13Z</time>
      </trkpt>
      <trkpt lat="43.78782" lon="5.14051">
        <ele>358.860809</ele>
        <time>2017-05-21T09:15:20Z</time>
      </trkpt>
      <trkpt lat="43.78759" lon="5.1404">
        <ele>357.254395</ele>
        <time>2017-05-21T09:15:26Z</time>
      </trkpt>
      <trkpt lat="43.7875" lon="5.14014">
        <ele>354.969696</ele>
        <time>2017-05-21T09:15:35Z</time>
      </trkpt>
      <trkpt lat="43.78731" lon="5.14">
        <ele>353.666107</ele>
        <time>2017-05-21T09:15:45Z</time>
      </trkpt>
      <trkpt lat="43.78704" lon="5.14006">
        <ele>351.381531</ele>
        <time>2017-05-21T09:16:05Z</time>
      </trkpt>
      <trkpt lat="43.78692" lon="5.14027">
        <ele>351.187775</ele>
        <time>2017-05-21T09:16:47Z</time>
      </trkpt>
      <trkpt lat="43.78636" lon="5.14">
        <ele>340.328888</ele>
        <time>2017-05-21T09:17:22Z</time>
      </trkpt>
      <trkpt lat="43.78618" lon="5.13987">
        <ele>337.986298</ele>
        <time>2017-05-21T09:17:31Z</time>
      </trkpt>
      <trkpt lat="43.78611" lon="5.13976">
        <ele>337.587067</ele>
        <time>2017-05-21T09:17:34Z</time>
      </trkpt>
      <trkpt lat="43.7859" lon="5.13978">
        <ele>334.046204</ele>
        <time>2017-05-21T09:17:43Z</time>
      </trkpt>
      <trkpt lat="43.78522" lon="5.14017">
        <ele>321.866608</ele>
        <time>2017-05-21T09:18:00Z</time>
      </trkpt>
      <trkpt lat="43.78471" lon="5.14065">
        <ele>321.160095</ele>
        <time>2017-05-21T09:18:12Z</time>
      </trkpt>
      <trkpt lat="43.78462" lon="5.14065">
        <ele>320.188568</ele>
        <time>2017-05-21T09:18:15Z</time>
      </trkpt>
      <trkpt lat="43.78445" lon="5.14052">
        <ele>321.294464</ele>
        <time>2017-05-21T09:18:24Z</time>
      </trkpt>
      <trkpt lat="43.78395" lon="5.14036">
        <ele>320.603149</ele>
        <time>2017-05-21T09:18:40Z</time>
      </trkpt>
      <trkpt lat="43.78382" lon="5.14038">
        <ele>320.315002</ele>
        <time>2017-05-21T09:18:43Z</time>
      </trkpt>
      <trkpt lat="43.78364" lon="5.14048">
        <ele>319.612244</ele>
        <time>2017-05-21T09:18:47Z</time>
      </trkpt>
      <trkpt lat="43.7834" lon="5.14076">
        <ele>317.615204</ele>
        <time>2017-05-21T09:18:53Z</time>
      </trkpt>
      <trkpt lat="43.78329" lon="5.14124">
        <ele>313.761108</ele>
        <time>2017-05-21T09:19:02Z</time>
      </trkpt>
      <trkpt lat="43.78314" lon="5.14149">
        <ele>311.141113</ele>
        <time>2017-05-21T09:19:08Z</time>
      </trkpt>
      <trkpt lat="43.78292" lon="5.14158">
        <ele>305.760406</ele>
        <time>2017-05-21T09:19:13Z</time>
      </trkpt>
      <trkpt lat="43.78275" lon="5.1417">
        <ele>302.065613</ele>
        <time>2017-05-21T09:19:17Z</time>
      </trkpt>
      <trkpt lat="43.78268" lon="5.14184">
        <ele>301.689514</ele>
        <time>2017-05-21T09:19:20Z</time>
      </trkpt>
      <trkpt lat="43.78262" lon="5.14209">
        <ele>303.959961</ele>
        <time>2017-05-21T09:19:26Z</time>
      </trkpt>
      <trkpt lat="43.78252" lon="5.14205">
        <ele>304.302765</ele>
        <time>2017-05-21T09:19:30Z</time>
      </trkpt>
      <trkpt lat="43.78243" lon="5.14193">
        <ele>302.803131</ele>
        <time>2017-05-21T09:19:34Z</time>
      </trkpt>
      <trkpt lat="43.78234" lon="5.14168">
        <ele>299.390747</ele>
        <time>2017-05-21T09:19:39Z</time>
      </trkpt>
      <trkpt lat="43.78193" lon="5.14121">
        <ele>304.989014</ele>
        <time>2017-05-21T09:19:51Z</time>
      </trkpt>
      <trkpt lat="43.78187" lon="5.14108">
        <ele>304.295471</ele>
        <time>2017-05-21T09:19:54Z</time>
      </trkpt>
      <trkpt lat="43.78186" lon="5.14063">
        <ele>300.949524</ele>
        <time>2017-05-21T09:20:02Z</time>
      </trkpt>
      <trkpt lat="43.7818" lon="5.1405">
        <ele>299.938446</ele>
        <time>2017-05-21T09:20:07Z</time>
      </trkpt>
      <trkpt lat="43.78159" lon="5.1405">
        <ele>300.532501</ele>
        <time>2017-05-21T09:20:13Z</time>
      </trkpt>
      <trkpt lat="43.78148" lon="5.14056">
        <ele>301.80368</ele>
        <time>2017-05-21T09:20:16Z</time>
      </trkpt>
      <trkpt lat="43.78098" lon="5.14056">
        <ele>307.199371</ele>
        <time>2017-05-21T09:20:41Z</time>
      </trkpt>
      <trkpt lat="43.78093" lon="5.14067">
        <ele>309.778259</ele>
        <time>2017-05-21T09:20:50Z</time>
      </trkpt>
      <trkpt lat="43.7809" lon="5.14093">
        <ele>313.765167</ele>
        <time>2017-05-21T09:21:06Z</time>
      </trkpt>
      <trkpt lat="43.78061" lon="5.14131">
        <ele>318.141968</ele>
        <time>2017-05-21T09:21:43Z</time>
      </trkpt>
      <trkpt lat="43.78042" lon="5.1414">
        <ele>319.298523</ele>
        <time>2017-05-21T09:22:13Z</time>
      </trkpt>
      <trkpt lat="43.78036" lon="5.14149">
        <ele>320.047424</ele>
        <time>2017-05-21T09:22:33Z</time>
      </trkpt>
      <trkpt lat="43.78028" lon="5.14213">
        <ele>329.152954</ele>
        <time>2017-05-21T09:23:53Z</time>
      </trkpt>
      <trkpt lat="43.78016" lon="5.14232">
        <ele>334.798431</ele>
        <time>2017-05-21T09:24:26Z</time>
      </trkpt>
      <trkpt lat="43.78014" lon="5.14245">
        <ele>336.067078</ele>
        <time>2017-05-21T09:24:40Z</time>
      </trkpt>
      <trkpt lat="43.78033" lon="5.14238">
        <ele>332.484863</ele>
        <time>2017-05-21T09:25:15Z</time>
      </trkpt>
      <trkpt lat="43.78031" lon="5.1425">
        <ele>334.673828</ele>
        <time>2017-05-21T09:25:50Z</time>
      </trkpt>
      <trkpt lat="43.77997" lon="5.14316">
        <ele>340</ele>
        <time>2017-05-21T09:26:41Z</time>
      </trkpt>
      <trkpt lat="43.77988" lon="5.1432">
        <ele>340</ele>
        <time>2017-05-21T09:26:48Z</time>
      </trkpt>
      <trkpt lat="43.78009" lon="5.14345">
        <ele>340.332092</ele>
        <time>2017-05-21T09:27:50Z</time>
      </trkpt>
      <trkpt lat="43.78117" lon="5.14349">
        <ele>356.918701</ele>
        <time>2017-05-21T09:29:05Z</time>
      </trkpt>
      <trkpt lat="43.78134" lon="5.14358">
        <ele>360.785889</ele>
        <time>2017-05-21T09:29:15Z</time>
      </trkpt>
      <trkpt lat="43.78158" lon="5.14386">
        <ele>359.731049</ele>
        <time>2017-05-21T09:29:31Z</time>
      </trkpt>
      <trkpt lat="43.78198" lon="5.14414">
        <ele>359.858643</ele>
        <time>2017-05-21T09:29:47Z</time>
      </trkpt>
      <trkpt lat="43.78269" lon="5.14494">
        <ele>374.287506</ele>
        <time>2017-05-21T09:30:12Z</time>
      </trkpt>
      <trkpt lat="43.78295" lon="5.14535">
        <ele>376.770721</ele>
        <time>2017-05-21T09:30:25Z</time>
      </trkpt>
      <trkpt lat="43.7832" lon="5.14594">
        <ele>382.774536</ele>
        <time>2017-05-21T09:30:50Z</time>
      </trkpt>
      <trkpt lat="43.7834" lon="5.14653">
        <ele>387.409515</ele>
        <time>2017-05-21T09:31:17Z</time>
      </trkpt>
      <trkpt lat="43.78346" lon="5.14664">
        <ele>388.097351</ele>
        <time>2017-05-21T09:31:23Z</time>
      </trkpt>
      <trkpt lat="43.78365" lon="5.14668">
        <ele>387.618927</ele>
        <time>2017-05-21T09:31:33Z</time>
      </trkpt>
      <trkpt lat="43.78375" lon="5.14677">
        <ele>386.37558</ele>
        <time>2017-05-21T09:31:37Z</time>
      </trkpt>
      <trkpt lat="43.78381" lon="5.14706">
        <ele>381.310211</ele>
        <time>2017-05-21T09:31:42Z</time>
      </trkpt>
      <trkpt lat="43.78405" lon="5.14745">
        <ele>371.313263</ele>
        <time>2017-05-21T09:31:48Z</time>
      </trkpt>
      <trkpt lat="43.78449" lon="5.14838">
        <ele>375.365082</ele>
        <time>2017-05-21T09:32:00Z</time>
      </trkpt>
      <trkpt lat="43.78499" lon="5.14904">
        <ele>378.537903</ele>
        <time>2017-05-21T09:32:29Z</time>
      </trkpt>
      <trkpt lat="43.78531" lon="5.1496">
        <ele>382.955383</ele>
        <time>2017-05-21T09:32:46Z</time>
      </trkpt>
      <trkpt lat="43.78548" lon="5.14974">
        <ele>383.324615</ele>
        <time>2017-05-21T09:32:50Z</time>
      </trkpt>
      <trkpt lat="43.7856" lon="5.14996">
        <ele>386.018555</ele>
        <time>2017-05-21T09:32:57Z</time>
      </trkpt>
      <trkpt lat="43.78566" lon="5.15026">
        <ele>386.316956</ele>
        <time>2017-05-21T09:33:05Z</time>
      </trkpt>
      <trkpt lat="43.78563" lon="5.15042">
        <ele>385.859924</ele>
        <time>2017-05-21T09:33:09Z</time>
      </trkpt>
      <trkpt lat="43.78533" lon="5.15107">
        <ele>377.92511</ele>
        <time>2017-05-21T09:33:24Z</time>
      </trkpt>
      <trkpt lat="43.78543" lon="5.15146">
        <ele>370.651001</ele>
        <time>2017-05-21T09:33:33Z</time>
      </trkpt>
      <trkpt lat="43.78598" lon="5.15156">
        <ele>373.034698</ele>
        <time>2017-05-21T09:33:50Z</time>
      </trkpt>
      <trkpt lat="43.78625" lon="5.15175">
        <ele>369.218353</ele>
        <time>2017-05-21T09:33:56Z</time>
      </trkpt>
      <trkpt lat="43.78642" lon="5.15197">
        <ele>363.832489</ele>
        <time>2017-05-21T09:34:00Z</time>
      </trkpt>
      <trkpt lat="43.78665" lon="5.15207">
        <ele>357.293488</ele>
        <time>2017-05-21T09:34:04Z</time>
      </trkpt>
      <trkpt lat="43.78678" lon="5.15206">
        <ele>354.2435</ele>
        <time>2017-05-21T09:34:06Z</time>
      </trkpt>
      <trkpt lat="43.78705" lon="5.15191">
        <ele>351.924927</ele>
        <time>2017-05-21T09:34:10Z</time>
      </trkpt>
      <trkpt lat="43.78817" lon="5.15079">
        <ele>344.494232</ele>
        <time>2017-05-21T09:34:26Z</time>
      </trkpt>
      <trkpt lat="43.78845" lon="5.1506">
        <ele>342.010712</ele>
        <time>2017-05-21T09:34:30Z</time>
      </trkpt>
      <trkpt lat="43.78881" lon="5.15022">
        <ele>344.892578</ele>
        <time>2017-05-21T09:34:36Z</time>
      </trkpt>
      <trkpt lat="43.7891" lon="5.15017">
        <ele>342.115509</ele>
        <time>2017-05-21T09:34:40Z</time>
      </trkpt>
      <trkpt lat="43.78924" lon="5.15021">
        <ele>339.087982</ele>
        <time>2017-05-21T09:34:42Z</time>
      </trkpt>
      <trkpt lat="43.78948" lon="5.1504">
        <ele>341.628632</ele>
        <time>2017-05-21T09:34:46Z</time>
      </trkpt>
      <trkpt lat="43.78952" lon="5.15055">
        <ele>342.022614</ele>
        <time>2017-05-21T09:34:49Z</time>
      </trkpt>
      <trkpt lat="43.78943" lon="5.15081">
        <ele>341.696808</ele>
        <time>2017-05-21T09:34:54Z</time>
      </trkpt>
      <trkpt lat="43.78934" lon="5.15074">
        <ele>341.431122</ele>
        <time>2017-05-21T09:35:12Z</time>
      </trkpt>
      <trkpt lat="43.78914" lon="5.15067">
        <ele>337.94751</ele>
        <time>2017-05-21T09:35:20Z</time>
      </trkpt>
      <trkpt lat="43.78905" lon="5.15069">
        <ele>335.958801</ele>
        <time>2017-05-21T09:35:23Z</time>
      </trkpt>
      <trkpt lat="43.78899" lon="5.1508">
        <ele>333.13623</ele>
        <time>2017-05-21T09:35:26Z</time>
      </trkpt>
      <trkpt lat="43.78897" lon="5.15095">
        <ele>334.364502</ele>
        <time>2017-05-21T09:35:29Z</time>
      </trkpt>
      <trkpt lat="43.78885" lon="5.15123">
        <ele>333.8125</ele>
        <time>2017-05-21T09:35:35Z</time>
      </trkpt>
      <trkpt lat="43.78872" lon="5.15131">
        <ele>332.55307</ele>
        <time>2017-05-21T09:35:38Z</time>
      </trkpt>
      <trkpt lat="43.78849" lon="5.15132">
        <ele>328.514801</ele>
        <time>2017-05-21T09:35:42Z</time>
      </trkpt>
      <trkpt lat="43.78842" lon="5.15143">
        <ele>325.817657</ele>
        <time>2017-05-21T09:35:45Z</time>
      </trkpt>
      <trkpt lat="43.78832" lon="5.15169">
        <ele>327.577759</ele>
        <time>2017-05-21T09:35:51Z</time>
      </trkpt>
      <trkpt lat="43.78824" lon="5.15181">
        <ele>327.52359</ele>
        <time>2017-05-21T09:35:53Z</time>
      </trkpt>
      <trkpt lat="43.78799" lon="5.15193">
        <ele>323.409302</ele>
        <time>2017-05-21T09:35:57Z</time>
      </trkpt>
      <trkpt lat="43.7879" lon="5.15202">
        <ele>321.905457</ele>
        <time>2017-05-21T09:35:59Z</time>
      </trkpt>
      <trkpt lat="43.78763" lon="5.15264">
        <ele>324.84613</ele>
        <time>2017-05-21T09:36:07Z</time>
      </trkpt>
      <trkpt lat="43.78702" lon="5.15284">
        <ele>324.090363</ele>
        <time>2017-05-21T09:36:19Z</time>
      </trkpt>
      <trkpt lat="43.78611" lon="5.15303">
        <ele>317.374878</ele>
        <time>2017-05-21T09:36:33Z</time>
      </trkpt>
      <trkpt lat="43.78599" lon="5.15309">
        <ele>315.88385</ele>
        <time>2017-05-21T09:36:35Z</time>
      </trkpt>
      <trkpt lat="43.78568" lon="5.15344">
        <ele>316.820923</ele>
        <time>2017-05-21T09:36:41Z</time>
      </trkpt>
      <trkpt lat="43.78554" lon="5.15344">
        <ele>316.732513</ele>
        <time>2017-05-21T09:36:43Z</time>
      </trkpt>
      <trkpt lat="43.78528" lon="5.15333">
        <ele>316.848755</ele>
        <time>2017-05-21T09:36:47Z</time>
      </trkpt>
      <trkpt lat="43.78516" lon="5.15336">
        <ele>317.102875</ele>
        <time>2017-05-21T09:36:49Z</time>
      </trkpt>
      <trkpt lat="43.78496" lon="5.1535">
        <ele>317.113708</ele>
        <time>2017-05-21T09:36:53Z</time>
      </trkpt>
      <trkpt lat="43.78485" lon="5.15352">
        <ele>316.789856</ele>
        <time>2017-05-21T09:36:55Z</time>
      </trkpt>
      <trkpt lat="43.7843" lon="5.15343">
        <ele>299.350433</ele>
        <time>2017-05-21T09:37:08Z</time>
      </trkpt>
      <trkpt lat="43.7842" lon="5.15347">
        <ele>298.593597</ele>
        <time>2017-05-21T09:37:10Z</time>
      </trkpt>
      <trkpt lat="43.78412" lon="5.15356">
        <ele>296.229218</ele>
        <time>2017-05-21T09:37:14Z</time>
      </trkpt>
      <trkpt lat="43.78399" lon="5.15387">
        <ele>296.47876</ele>
        <time>2017-05-21T09:37:21Z</time>
      </trkpt>
      <trkpt lat="43.78375" lon="5.15418">
        <ele>296.842285</ele>
        <time>2017-05-21T09:37:27Z</time>
      </trkpt>
      <trkpt lat="43.78352" lon="5.15426">
        <ele>290.865997</ele>
        <time>2017-05-21T09:37:31Z</time>
      </trkpt>
      <trkpt lat="43.78307" lon="5.15425">
        <ele>282.766113</ele>
        <time>2017-05-21T09:37:40Z</time>
      </trkpt>
      <trkpt lat="43.78275" lon="5.15409">
        <ele>285.471954</ele>
        <time>2017-05-21T09:37:46Z</time>
      </trkpt>
      <trkpt lat="43.78265" lon="5.15409">
        <ele>284.951782</ele>
        <time>2017-05-21T09:37:48Z</time>
      </trkpt>
      <trkpt lat="43.78247" lon="5.15426">
        <ele>278.073181</ele>
        <time>2017-05-21T09:37:52Z</time>
      </trkpt>
      <trkpt lat="43.78244" lon="5.15441">
        <ele>279.330109</ele>
        <time>2017-05-21T09:37:54Z</time>
      </trkpt>
      <trkpt lat="43.78246" lon="5.15472">
        <ele>277.280853</ele>
        <time>2017-05-21T09:37:58Z</time>
      </trkpt>
      <trkpt lat="43.78261" lon="5.15497">
        <ele>281.261444</ele>
        <time>2017-05-21T09:38:03Z</time>
      </trkpt>
      <trkpt lat="43.78277" lon="5.15551">
        <ele>279.046082</ele>
        <time>2017-05-21T09:38:11Z</time>
      </trkpt>
      <trkpt lat="43.78269" lon="5.15564">
        <ele>279.404083</ele>
        <time>2017-05-21T09:38:14Z</time>
      </trkpt>
      <trkpt lat="43.78243" lon="5.15568">
        <ele>276.848328</ele>
        <time>2017-05-21T09:38:20Z</time>
      </trkpt>
      <trkpt lat="43.7822" lon="5.15578">
        <ele>280.17334</ele>
        <time>2017-05-21T09:38:26Z</time>
      </trkpt>
      <trkpt lat="43.78209" lon="5.15589">
        <ele>279.150818</ele>
        <time>2017-05-21T09:38:29Z</time>
      </trkpt>
      <trkpt lat="43.78197" lon="5.15618">
        <ele>273.794983</ele>
        <time>2017-05-21T09:38:35Z</time>
      </trkpt>
      <trkpt lat="43.7819" lon="5.15704">
        <ele>271.664612</ele>
        <time>2017-05-21T09:38:48Z</time>
      </trkpt>
      <trkpt lat="43.78182" lon="5.15717">
        <ele>272.100342</ele>
        <time>2017-05-21T09:38:50Z</time>
      </trkpt>
      <trkpt lat="43.78116" lon="5.15762">
        <ele>271.617981</ele>
        <time>2017-05-21T09:39:04Z</time>
      </trkpt>
      <trkpt lat="43.78044" lon="5.15771">
        <ele>264.199585</ele>
        <time>2017-05-21T09:39:16Z</time>
      </trkpt>
      <trkpt lat="43.78033" lon="5.15777">
        <ele>261.423889</ele>
        <time>2017-05-21T09:39:18Z</time>
      </trkpt>
      <trkpt lat="43.77998" lon="5.15814">
        <ele>266.927338</ele>
        <time>2017-05-21T09:39:26Z</time>
      </trkpt>
      <trkpt lat="43.7798" lon="5.1582">
        <ele>267.185028</ele>
        <time>2017-05-21T09:39:30Z</time>
      </trkpt>
      <trkpt lat="43.77932" lon="5.15803">
        <ele>264.467316</ele>
        <time>2017-05-21T09:39:45Z</time>
      </trkpt>
      <trkpt lat="43.77912" lon="5.15792">
        <ele>260.755798</ele>
        <time>2017-05-21T09:39:53Z</time>
      </trkpt>
      <trkpt lat="43.7789" lon="5.15789">
        <ele>258.690948</ele>
        <time>2017-05-21T09:40:01Z</time>
      </trkpt>
      <trkpt lat="43.77844" lon="5.15827">
        <ele>266.631989</ele>
        <time>2017-05-21T09:40:21Z</time>
      </trkpt>
      <trkpt lat="43.77815" lon="5.15844">
        <ele>264.186646</ele>
        <time>2017-05-21T09:40:33Z</time>
      </trkpt>
      <trkpt lat="43.77791" lon="5.15872">
        <ele>265.829193</ele>
        <time>2017-05-21T09:40:45Z</time>
      </trkpt>
      <trkpt lat="43.77778" lon="5.15894">
        <ele>269.586029</ele>
        <time>2017-05-21T09:40:53Z</time>
      </trkpt>
      <trkpt lat="43.77768" lon="5.15899">
        <ele>268.107574</ele>
        <time>2017-05-21T09:40:57Z</time>
      </trkpt>
      <trkpt lat="43.77758" lon="5.15896">
        <ele>265.152679</ele>
        <time>2017-05-21T09:41:01Z</time>
      </trkpt>
      <trkpt lat="43.77738" lon="5.15904">
        <ele>261.663727</ele>
        <time>2017-05-21T09:41:09Z</time>
      </trkpt>
      <trkpt lat="43.7773" lon="5.15914">
        <ele>262.513275</ele>
        <time>2017-05-21T09:41:13Z</time>
      </trkpt>
      <trkpt lat="43.7773" lon="5.15928">
        <ele>265.231781</ele>
        <time>2017-05-21T09:41:17Z</time>
      </trkpt>
      <trkpt lat="43.77753" lon="5.15996">
        <ele>274.857513</ele>
        <time>2017-05-21T09:41:30Z</time>
      </trkpt>
      <trkpt lat="43.77764" lon="5.16017">
        <ele>275.825012</ele>
        <time>2017-05-21T09:41:34Z</time>
      </trkpt>
      <trkpt lat="43.7778" lon="5.16032">
        <ele>276.935486</ele>
        <time>2017-05-21T09:41:38Z</time>
      </trkpt>
      <trkpt lat="43.77799" lon="5.1604">
        <ele>277.872101</ele>
        <time>2017-05-21T09:41:42Z</time>
      </trkpt>
      <trkpt lat="43.77806" lon="5.16052">
        <ele>278.663757</ele>
        <time>2017-05-21T09:41:45Z</time>
      </trkpt>
      <trkpt lat="43.77799" lon="5.16062">
        <ele>278.510864</ele>
        <time>2017-05-21T09:41:48Z</time>
      </trkpt>
      <trkpt lat="43.7777" lon="5.16069">
        <ele>277.06427</ele>
        <time>2017-05-21T09:41:59Z</time>
      </trkpt>
      <trkpt lat="43.77749" lon="5.16068">
        <ele>277.1521</ele>
        <time>2017-05-21T09:42:06Z</time>
      </trkpt>
      <trkpt lat="43.77699" lon="5.16007">
        <ele>276.816071</ele>
        <time>2017-05-21T09:42:30Z</time>
      </trkpt>
      <trkpt lat="43.77678" lon="5.15995">
        <ele>275.580811</ele>
        <time>2017-05-21T09:42:38Z</time>
      </trkpt>
      <trkpt lat="43.77637" lon="5.16009">
        <ele>276.10202</ele>
        <time>2017-05-21T09:42:52Z</time>
      </trkpt>
      <trkpt lat="43.77609" lon="5.16029">
        <ele>273.664001</ele>
        <time>2017-05-21T09:43:03Z</time>
      </trkpt>
      <trkpt lat="43.77602" lon="5.16041">
        <ele>274.571686</ele>
        <time>2017-05-21T09:43:07Z</time>
      </trkpt>
      <trkpt lat="43.77596" lon="5.16068">
        <ele>276.262207</ele>
        <time>2017-05-21T09:43:15Z</time>
      </trkpt>
      <trkpt lat="43.77592" lon="5.16126">
        <ele>275.467987</ele>
        <time>2017-05-21T09:43:31Z</time>
      </trkpt>
      <trkpt lat="43.77603" lon="5.16171">
        <ele>277.594604</ele>
        <time>2017-05-21T09:43:42Z</time>
      </trkpt>
      <trkpt lat="43.776" lon="5.1626">
        <ele>277.204987</ele>
        <time>2017-05-21T09:43:55Z</time>
      </trkpt>
      <trkpt lat="43.77594" lon="5.16302">
        <ele>279.503265</ele>
        <time>2017-05-21T09:44:01Z</time>
      </trkpt>
      <trkpt lat="43.77573" lon="5.16383">
        <ele>271.791626</ele>
        <time>2017-05-21T09:44:16Z</time>
      </trkpt>
      <trkpt lat="43.77577" lon="5.16398">
        <ele>271.957397</ele>
        <time>2017-05-21T09:44:19Z</time>
      </trkpt>
      <trkpt lat="43.77617" lon="5.16451">
        <ele>273.787506</ele>
        <time>2017-05-21T09:44:29Z</time>
      </trkpt>
      <trkpt lat="43.7764" lon="5.16459">
        <ele>277.321564</ele>
        <time>2017-05-21T09:44:33Z</time>
      </trkpt>
      <trkpt lat="43.77644" lon="5.1647">
        <ele>277.694366</ele>
        <time>2017-05-21T09:44:35Z</time>
      </trkpt>
      <trkpt lat="43.7764" lon="5.16483">
        <ele>277.848511</ele>
        <time>2017-05-21T09:44:37Z</time>
      </trkpt>
      <trkpt lat="43.77634" lon="5.16492">
        <ele>277.575012</ele>
        <time>2017-05-21T09:44:39Z</time>
      </trkpt>
      <trkpt lat="43.77603" lon="5.16506">
        <ele>272.351257</ele>
        <time>2017-05-21T09:44:48Z</time>
      </trkpt>
      <trkpt lat="43.77586" lon="5.16524">
        <ele>270.954651</ele>
        <time>2017-05-21T09:44:54Z</time>
      </trkpt>
      <trkpt lat="43.77555" lon="5.16622">
        <ele>267.715088</ele>
        <time>2017-05-21T09:45:14Z</time>
      </trkpt>
      <trkpt lat="43.77553" lon="5.1665">
        <ele>266.887238</ele>
        <time>2017-05-21T09:45:18Z</time>
      </trkpt>
      <trkpt lat="43.77565" lon="5.16676">
        <ele>270.29303</ele>
        <time>2017-05-21T09:45:22Z</time>
      </trkpt>
      <trkpt lat="43.776" lon="5.167">
        <ele>275.992493</ele>
        <time>2017-05-21T09:45:28Z</time>
      </trkpt>
      <trkpt lat="43.77626" lon="5.16723">
        <ele>275.967499</ele>
        <time>2017-05-21T09:45:32Z</time>
      </trkpt>
      <trkpt lat="43.77659" lon="5.16763">
        <ele>274.742859</ele>
        <time>2017-05-21T09:45:38Z</time>
      </trkpt>
      <trkpt lat="43.77667" lon="5.16777">
        <ele>274.136108</ele>
        <time>2017-05-21T09:45:40Z</time>
      </trkpt>
      <trkpt lat="43.77691" lon="5.16848">
        <ele>274.437195</ele>
        <time>2017-05-21T09:45:50Z</time>
      </trkpt>
      <trkpt lat="43.77711" lon="5.16869">
        <ele>275.09021</ele>
        <time>2017-05-21T09:45:56Z</time>
      </trkpt>
      <trkpt lat="43.77757" lon="5.16901">
        <ele>275.562714</ele>
        <time>2017-05-21T09:46:11Z</time>
      </trkpt>
      <trkpt lat="43.77757" lon="5.16916">
        <ele>278.144775</ele>
        <time>2017-05-21T09:46:15Z</time>
      </trkpt>
      <trkpt lat="43.7775" lon="5.16924">
        <ele>279.745544</ele>
        <time>2017-05-21T09:46:18Z</time>
      </trkpt>
      <trkpt lat="43.7773" lon="5.16932">
        <ele>281.369232</ele>
        <time>2017-05-21T09:46:24Z</time>
      </trkpt>
      <trkpt lat="43.77709" lon="5.16931">
        <ele>281.673126</ele>
        <time>2017-05-21T09:46:30Z</time>
      </trkpt>
      <trkpt lat="43.777" lon="5.16927">
        <ele>281.464508</ele>
        <time>2017-05-21T09:46:33Z</time>
      </trkpt>
      <trkpt lat="43.77661" lon="5.16889">
        <ele>278.337524</ele>
        <time>2017-05-21T09:46:52Z</time>
      </trkpt>
      <trkpt lat="43.77652" lon="5.16886">
        <ele>277.644409</ele>
        <time>2017-05-21T09:46:56Z</time>
      </trkpt>
      <trkpt lat="43.77643" lon="5.16893">
        <ele>277.807037</ele>
        <time>2017-05-21T09:47:00Z</time>
      </trkpt>
      <trkpt lat="43.7763" lon="5.16946">
        <ele>281.080322</ele>
        <time>2017-05-21T09:47:16Z</time>
      </trkpt>
      <trkpt lat="43.77596" lon="5.17019">
        <ele>283.250641</ele>
        <time>2017-05-21T09:47:35Z</time>
      </trkpt>
      <trkpt lat="43.7759" lon="5.17077">
        <ele>282.346008</ele>
        <time>2017-05-21T09:47:50Z</time>
      </trkpt>
      <trkpt lat="43.77601" lon="5.17193">
        <ele>286.981079</ele>
        <time>2017-05-21T09:48:11Z</time>
      </trkpt>
      <trkpt lat="43.77609" lon="5.17216">
        <ele>289.440338</ele>
        <time>2017-05-21T09:51:27Z</time>
      </trkpt>
      <trkpt lat="43.77614" lon="5.17355">
        <ele>292.219299</ele>
        <time>2017-05-21T09:52:09Z</time>
      </trkpt>
      <trkpt lat="43.77606" lon="5.17455">
        <ele>294.808716</ele>
        <time>2017-05-21T09:52:38Z</time>
      </trkpt>
      <trkpt lat="43.77596" lon="5.17481">
        <ele>295.878418</ele>
        <time>2017-05-21T09:52:46Z</time>
      </trkpt>
      <trkpt lat="43.77594" lon="5.17495">
        <ele>296.471252</ele>
        <time>2017-05-21T09:52:51Z</time>
      </trkpt>
      <trkpt lat="43.77603" lon="5.17501">
        <ele>296.929993</ele>
        <time>2017-05-21T09:52:56Z</time>
      </trkpt>
      <trkpt lat="43.77608" lon="5.17512">
        <ele>297.549988</ele>
        <time>2017-05-21T09:53:00Z</time>
      </trkpt>
      <trkpt lat="43.77619" lon="5.17583">
        <ele>300.035004</ele>
        <time>2017-05-21T09:53:20Z</time>
      </trkpt>
      <trkpt lat="43.77628" lon="5.17608">
        <ele>300.227509</ele>
        <time>2017-05-21T09:53:27Z</time>
      </trkpt>
      <trkpt lat="43.77651" lon="5.17633">
        <ele>300.274719</ele>
        <time>2017-05-21T09:53:39Z</time>
      </trkpt>
      <trkpt lat="43.77672" lon="5.17641">
        <ele>301.616241</ele>
        <time>2017-05-21T09:53:47Z</time>
      </trkpt>
      <trkpt lat="43.77686" lon="5.1766">
        <ele>302.232147</ele>
        <time>2017-05-21T09:53:54Z</time>
      </trkpt>
      <trkpt lat="43.77697" lon="5.17687">
        <ele>302.794617</ele>
        <time>2017-05-21T09:54:03Z</time>
      </trkpt>
      <trkpt lat="43.77677" lon="5.17729">
        <ele>307.670013</ele>
        <time>2017-05-21T09:54:49Z</time>
      </trkpt>
      <trkpt lat="43.77661" lon="5.17776">
        <ele>313.890137</ele>
        <time>2017-05-21T09:55:59Z</time>
      </trkpt>
      <trkpt lat="43.77649" lon="5.178">
        <ele>316.591217</ele>
        <time>2017-05-21T09:56:05Z</time>
      </trkpt>
      <trkpt lat="43.77611" lon="5.17927">
        <ele>314.623657</ele>
        <time>2017-05-21T09:56:32Z</time>
      </trkpt>
      <trkpt lat="43.77613" lon="5.17942">
        <ele>314.756866</ele>
        <time>2017-05-21T09:56:35Z</time>
      </trkpt>
      <trkpt lat="43.77613" lon="5.18005">
        <ele>309.597656</ele>
        <time>2017-05-21T09:56:46Z</time>
      </trkpt>
      <trkpt lat="43.77626" lon="5.18103">
        <ele>310.587463</ele>
        <time>2017-05-21T09:57:01Z</time>
      </trkpt>
      <trkpt lat="43.77628" lon="5.18164">
        <ele>306.035156</ele>
        <time>2017-05-21T09:57:10Z</time>
      </trkpt>
      <trkpt lat="43.77626" lon="5.18205">
        <ele>302.704651</ele>
        <time>2017-05-21T09:57:18Z</time>
      </trkpt>
      <trkpt lat="43.77612" lon="5.18266">
        <ele>300.042847</ele>
        <time>2017-05-21T09:57:31Z</time>
      </trkpt>
      <trkpt lat="43.77602" lon="5.18383">
        <ele>304.894989</ele>
        <time>2017-05-21T09:58:00Z</time>
      </trkpt>
      <trkpt lat="43.77591" lon="5.18444">
        <ele>303.540985</ele>
        <time>2017-05-21T09:58:15Z</time>
      </trkpt>
      <trkpt lat="43.77587" lon="5.18516">
        <ele>300.354004</ele>
        <time>2017-05-21T09:58:26Z</time>
      </trkpt>
      <trkpt lat="43.77576" lon="5.18604">
        <ele>286.611969</ele>
        <time>2017-05-21T09:58:44Z</time>
      </trkpt>
      <trkpt lat="43.77585" lon="5.18666">
        <ele>282.857635</ele>
        <time>2017-05-21T09:58:54Z</time>
      </trkpt>
      <trkpt lat="43.7757" lon="5.18737">
        <ele>283.220764</ele>
        <time>2017-05-21T09:59:08Z</time>
      </trkpt>
      <trkpt lat="43.7755" lon="5.18804">
        <ele>282.530792</ele>
        <time>2017-05-21T09:59:26Z</time>
      </trkpt>
      <trkpt lat="43.77542" lon="5.18817">
        <ele>281.105927</ele>
        <time>2017-05-21T09:59:28Z</time>
      </trkpt>
      <trkpt lat="43.775" lon="5.18844">
        <ele>275.825012</ele>
        <time>2017-05-21T09:59:34Z</time>
      </trkpt>
      <trkpt lat="43.77476" lon="5.18873">
        <ele>275.15683</ele>
        <time>2017-05-21T09:59:38Z</time>
      </trkpt>
      <trkpt lat="43.77461" lon="5.18904">
        <ele>275.322754</ele>
        <time>2017-05-21T09:59:42Z</time>
      </trkpt>
      <trkpt lat="43.77436" lon="5.18932">
        <ele>272.407501</ele>
        <time>2017-05-21T09:59:48Z</time>
      </trkpt>
      <trkpt lat="43.77433" lon="5.18948">
        <ele>271.491364</ele>
        <time>2017-05-21T09:59:51Z</time>
      </trkpt>
      <trkpt lat="43.77454" lon="5.19044">
        <ele>257.524414</ele>
        <time>2017-05-21T10:00:08Z</time>
      </trkpt>
      <trkpt lat="43.77465" lon="5.1905">
        <ele>256.778687</ele>
        <time>2017-05-21T10:00:12Z</time>
      </trkpt>
      <trkpt lat="43.77486" lon="5.19048">
        <ele>256.795166</ele>
        <time>2017-05-21T10:00:20Z</time>
      </trkpt>
      <trkpt lat="43.77517" lon="5.19036">
        <ele>259.67749</ele>
        <time>2017-05-21T10:00:34Z</time>
      </trkpt>
      <trkpt lat="43.77549" lon="5.19032">
        <ele>261.505005</ele>
        <time>2017-05-21T10:00:46Z</time>
      </trkpt>
      <trkpt lat="43.77603" lon="5.19049">
        <ele>259.643646</ele>
        <time>2017-05-21T10:01:03Z</time>
      </trkpt>
      <trkpt lat="43.77682" lon="5.19046">
        <ele>265.607941</ele>
        <time>2017-05-21T10:01:36Z</time>
      </trkpt>
      <trkpt lat="43.77707" lon="5.19026">
        <ele>269.226685</ele>
        <time>2017-05-21T10:01:52Z</time>
      </trkpt>
      <trkpt lat="43.77736" lon="5.19035">
        <ele>271.52655</ele>
        <time>2017-05-21T10:02:08Z</time>
      </trkpt>
      <trkpt lat="43.77745" lon="5.19032">
        <ele>271.996643</ele>
        <time>2017-05-21T10:02:14Z</time>
      </trkpt>
      <trkpt lat="43.77788" lon="5.18995">
        <ele>269.403442</ele>
        <time>2017-05-21T10:02:41Z</time>
      </trkpt>
      <trkpt lat="43.77818" lon="5.18991">
        <ele>272.581604</ele>
        <time>2017-05-21T10:02:56Z</time>
      </trkpt>
      <trkpt lat="43.77867" lon="5.18993">
        <ele>277.65625</ele>
        <time>2017-05-21T10:03:23Z</time>
      </trkpt>
      <trkpt lat="43.77888" lon="5.18989">
        <ele>280.310822</ele>
        <time>2017-05-21T10:03:34Z</time>
      </trkpt>
      <trkpt lat="43.77913" lon="5.18966">
        <ele>281.542084</ele>
        <time>2017-05-21T10:03:49Z</time>
      </trkpt>
      <trkpt lat="43.77953" lon="5.189">
        <ele>284.091858</ele>
        <time>2017-05-21T10:04:19Z</time>
      </trkpt>
      <trkpt lat="43.77956" lon="5.18888">
        <ele>284.455872</ele>
        <time>2017-05-21T10:04:24Z</time>
      </trkpt>
      <trkpt lat="43.77954" lon="5.18834">
        <ele>283.134399</ele>
        <time>2017-05-21T10:04:45Z</time>
      </trkpt>
      <trkpt lat="43.77957" lon="5.1882">
        <ele>283.39978</ele>
        <time>2017-05-21T10:04:50Z</time>
      </trkpt>
      <trkpt lat="43.77975" lon="5.18808">
        <ele>285.651642</ele>
        <time>2017-05-21T10:05:04Z</time>
      </trkpt>
      <trkpt lat="43.77994" lon="5.18807">
        <ele>289.575897</ele>
        <time>2017-05-21T10:05:21Z</time>
      </trkpt>
      <trkpt lat="43.78023" lon="5.18816">
        <ele>296.170563</ele>
        <time>2017-05-21T10:05:37Z</time>
      </trkpt>
      <trkpt lat="43.78068" lon="5.18842">
        <ele>301.230682</ele>
        <time>2017-05-21T10:06:02Z</time>
      </trkpt>
      <trkpt lat="43.78118" lon="5.1889">
        <ele>300.128906</ele>
        <time>2017-05-21T10:06:32Z</time>
      </trkpt>
      <trkpt lat="43.78128" lon="5.18891">
        <ele>300.072662</ele>
        <time>2017-05-21T10:06:37Z</time>
      </trkpt>
      <trkpt lat="43.78147" lon="5.18886">
        <ele>300.926788</ele>
        <time>2017-05-21T10:06:47Z</time>
      </trkpt>
      <trkpt lat="43.78203" lon="5.18907">
        <ele>306.884064</ele>
        <time>2017-05-21T10:07:19Z</time>
      </trkpt>
      <trkpt lat="43.78232" lon="5.189">
        <ele>305.911011</ele>
        <time>2017-05-21T10:07:35Z</time>
      </trkpt>
      <trkpt lat="43.78279" lon="5.18897">
        <ele>307.828094</ele>
        <time>2017-05-21T10:07:59Z</time>
      </trkpt>
      <trkpt lat="43.78349" lon="5.18882">
        <ele>313.384918</ele>
        <time>2017-05-21T10:08:36Z</time>
      </trkpt>
      <trkpt lat="43.78367" lon="5.18896">
        <ele>313.848053</ele>
        <time>2017-05-21T10:08:47Z</time>
      </trkpt>
      <trkpt lat="43.7839" lon="5.18941">
        <ele>315.362762</ele>
        <time>2017-05-21T10:09:07Z</time>
      </trkpt>
      <trkpt lat="43.78392" lon="5.18953">
        <ele>315.170074</ele>
        <time>2017-05-21T10:09:12Z</time>
      </trkpt>
      <trkpt lat="43.7839" lon="5.18979">
        <ele>316.312561</ele>
        <time>2017-05-21T10:09:23Z</time>
      </trkpt>
      <trkpt lat="43.78394" lon="5.18991">
        <ele>318.504822</ele>
        <time>2017-05-21T10:09:29Z</time>
      </trkpt>
      <trkpt lat="43.78433" lon="5.19012">
        <ele>319.991821</ele>
        <time>2017-05-21T10:09:53Z</time>
      </trkpt>
      <trkpt lat="43.78447" lon="5.1903">
        <ele>318.692444</ele>
        <time>2017-05-21T10:23:53Z</time>
      </trkpt>
      <trkpt lat="43.78453" lon="5.19055">
        <ele>322.989777</ele>
        <time>2017-05-21T10:24:10Z</time>
      </trkpt>
      <trkpt lat="43.78484" lon="5.19085">
        <ele>323.688019</ele>
        <time>2017-05-21T10:24:37Z</time>
      </trkpt>
      <trkpt lat="43.78501" lon="5.19096">
        <ele>320.962311</ele>
        <time>2017-05-21T10:24:50Z</time>
      </trkpt>
      <trkpt lat="43.78516" lon="5.19115">
        <ele>325.437103</ele>
        <time>2017-05-21T10:25:00Z</time>
      </trkpt>
      <trkpt lat="43.7854" lon="5.19133">
        <ele>327.212433</ele>
        <time>2017-05-21T10:25:16Z</time>
      </trkpt>
      <trkpt lat="43.78576" lon="5.19148">
        <ele>325.33078</ele>
        <time>2017-05-21T10:25:37Z</time>
      </trkpt>
      <trkpt lat="43.78602" lon="5.19174">
        <ele>323.2565</ele>
        <time>2017-05-21T10:26:00Z</time>
      </trkpt>
      <trkpt lat="43.78621" lon="5.19182">
        <ele>327.991364</ele>
        <time>2017-05-21T10:26:11Z</time>
      </trkpt>
      <trkpt lat="43.78637" lon="5.19197">
        <ele>329.74704</ele>
        <time>2017-05-21T10:26:21Z</time>
      </trkpt>
      <trkpt lat="43.78649" lon="5.19219">
        <ele>327.980316</ele>
        <time>2017-05-21T10:26:31Z</time>
      </trkpt>
      <trkpt lat="43.78658" lon="5.19226">
        <ele>327.320313</ele>
        <time>2017-05-21T10:26:38Z</time>
      </trkpt>
      <trkpt lat="43.78705" lon="5.19245">
        <ele>334.818207</ele>
        <time>2017-05-21T10:27:17Z</time>
      </trkpt>
      <trkpt lat="43.78753" lon="5.19259">
        <ele>345.132294</ele>
        <time>2017-05-21T10:27:45Z</time>
      </trkpt>
      <trkpt lat="43.78761" lon="5.19265">
        <ele>346.552795</ele>
        <time>2017-05-21T10:27:51Z</time>
      </trkpt>
      <trkpt lat="43.78775" lon="5.19301">
        <ele>343.931244</ele>
        <time>2017-05-21T10:28:17Z</time>
      </trkpt>
      <trkpt lat="43.78779" lon="5.19371">
        <ele>346.086731</ele>
        <time>2017-05-21T10:28:50Z</time>
      </trkpt>
      <trkpt lat="43.78775" lon="5.19384">
        <ele>346.977356</ele>
        <time>2017-05-21T10:28:57Z</time>
      </trkpt>
      <trkpt lat="43.78782" lon="5.19423">
        <ele>351.893158</ele>
        <time>2017-05-21T10:29:17Z</time>
      </trkpt>
      <trkpt lat="43.78788" lon="5.19434">
        <ele>354.476196</ele>
        <time>2017-05-21T10:29:25Z</time>
      </trkpt>
      <trkpt lat="43.78808" lon="5.19437">
        <ele>352.878723</ele>
        <time>2017-05-21T10:29:36Z</time>
      </trkpt>
      <trkpt lat="43.78823" lon="5.19453">
        <ele>356.06958</ele>
        <time>2017-05-21T10:29:50Z</time>
      </trkpt>
      <trkpt lat="43.7885" lon="5.19469">
        <ele>360.628448</ele>
        <time>2017-05-21T10:30:07Z</time>
      </trkpt>
      <trkpt lat="43.7887" lon="5.19498">
        <ele>368.207367</ele>
        <time>2017-05-21T10:30:33Z</time>
      </trkpt>
      <trkpt lat="43.78879" lon="5.19498">
        <ele>369.113373</ele>
        <time>2017-05-21T10:30:50Z</time>
      </trkpt>
      <trkpt lat="43.78887" lon="5.19492">
        <ele>366.896484</ele>
        <time>2017-05-21T10:31:02Z</time>
      </trkpt>
      <trkpt lat="43.78891" lon="5.19452">
        <ele>361.665222</ele>
        <time>2017-05-21T10:31:56Z</time>
      </trkpt>
      <trkpt lat="43.78901" lon="5.19431">
        <ele>358.786194</ele>
        <time>2017-05-21T10:32:22Z</time>
      </trkpt>
      <trkpt lat="43.78909" lon="5.19423">
        <ele>360.291626</ele>
        <time>2017-05-21T10:32:34Z</time>
      </trkpt>
      <trkpt lat="43.78944" lon="5.19437">
        <ele>363.970306</ele>
        <time>2017-05-21T10:33:23Z</time>
      </trkpt>
      <trkpt lat="43.78961" lon="5.19452">
        <ele>367.9935</ele>
        <time>2017-05-21T10:33:40Z</time>
      </trkpt>
      <trkpt lat="43.78999" lon="5.19448">
        <ele>375.160919</ele>
        <time>2017-05-21T10:34:24Z</time>
      </trkpt>
      <trkpt lat="43.7902" lon="5.19491">
        <ele>375.950531</ele>
        <time>2017-05-21T10:35:07Z</time>
      </trkpt>
      <trkpt lat="43.79037" lon="5.19504">
        <ele>379.804626</ele>
        <time>2017-05-21T10:35:23Z</time>
      </trkpt>
      <trkpt lat="43.7904" lon="5.19531">
        <ele>381.665222</ele>
        <time>2017-05-21T10:35:37Z</time>
      </trkpt>
      <trkpt lat="43.79046" lon="5.1954">
        <ele>381.703583</ele>
        <time>2017-05-21T10:35:44Z</time>
      </trkpt>
      <trkpt lat="43.79057" lon="5.19543">
        <ele>381.074768</ele>
        <time>2017-05-21T10:35:50Z</time>
      </trkpt>
      <trkpt lat="43.79096" lon="5.19534">
        <ele>382.224701</ele>
        <time>2017-05-21T10:36:13Z</time>
      </trkpt>
      <trkpt lat="43.79112" lon="5.19551">
        <ele>384.287567</ele>
        <time>2017-05-21T10:36:25Z</time>
      </trkpt>
      <trkpt lat="43.79125" lon="5.1959">
        <ele>386.600403</ele>
        <time>2017-05-21T10:36:46Z</time>
      </trkpt>
      <trkpt lat="43.7912" lon="5.19628">
        <ele>388.128387</ele>
        <time>2017-05-21T10:37:09Z</time>
      </trkpt>
      <trkpt lat="43.79125" lon="5.19653">
        <ele>388.563477</ele>
        <time>2017-05-21T10:37:22Z</time>
      </trkpt>
      <trkpt lat="43.79119" lon="5.19678">
        <ele>391.392395</ele>
        <time>2017-05-21T10:37:36Z</time>
      </trkpt>
      <trkpt lat="43.79113" lon="5.19688">
        <ele>393.141357</ele>
        <time>2017-05-21T10:37:42Z</time>
      </trkpt>
      <trkpt lat="43.7911" lon="5.19701">
        <ele>395.224304</ele>
        <time>2017-05-21T10:37:48Z</time>
      </trkpt>
      <trkpt lat="43.79096" lon="5.19719">
        <ele>396.880707</ele>
        <time>2017-05-21T10:38:00Z</time>
      </trkpt>
      <trkpt lat="43.79083" lon="5.19755">
        <ele>395.507721</ele>
        <time>2017-05-21T10:38:22Z</time>
      </trkpt>
      <trkpt lat="43.79082" lon="5.19807">
        <ele>398.974884</ele>
        <time>2017-05-21T10:38:50Z</time>
      </trkpt>
      <trkpt lat="43.79091" lon="5.19845">
        <ele>405.622009</ele>
        <time>2017-05-21T10:39:14Z</time>
      </trkpt>
      <trkpt lat="43.79096" lon="5.1991">
        <ele>415.539246</ele>
        <time>2017-05-21T10:39:49Z</time>
      </trkpt>
      <trkpt lat="43.79093" lon="5.19924">
        <ele>418.575623</ele>
        <time>2017-05-21T10:39:56Z</time>
      </trkpt>
      <trkpt lat="43.79087" lon="5.19934">
        <ele>421.664429</ele>
        <time>2017-05-21T10:40:04Z</time>
      </trkpt>
      <trkpt lat="43.7908" lon="5.19974">
        <ele>427.686005</ele>
        <time>2017-05-21T10:40:29Z</time>
      </trkpt>
      <trkpt lat="43.79092" lon="5.19993">
        <ele>426.78009</ele>
        <time>2017-05-21T10:40:44Z</time>
      </trkpt>
      <trkpt lat="43.79117" lon="5.20014">
        <ele>424.556</ele>
        <time>2017-05-21T10:41:02Z</time>
      </trkpt>
      <trkpt lat="43.79142" lon="5.20075">
        <ele>432.843384</ele>
        <time>2017-05-21T10:41:44Z</time>
      </trkpt>
      <trkpt lat="43.79158" lon="5.20139">
        <ele>434.820679</ele>
        <time>2017-05-21T10:42:18Z</time>
      </trkpt>
      <trkpt lat="43.7915" lon="5.20178">
        <ele>438.261444</ele>
        <time>2017-05-21T10:42:38Z</time>
      </trkpt>
      <trkpt lat="43.79156" lon="5.20217">
        <ele>440.119995</ele>
        <time>2017-05-21T10:43:00Z</time>
      </trkpt>
      <trkpt lat="43.79185" lon="5.20317">
        <ele>452.140015</ele>
        <time>2017-05-21T10:43:56Z</time>
      </trkpt>
      <trkpt lat="43.79202" lon="5.2033">
        <ele>455.178314</ele>
        <time>2017-05-21T10:44:08Z</time>
      </trkpt>
      <trkpt lat="43.79201" lon="5.20344">
        <ele>457.203735</ele>
        <time>2017-05-21T10:44:15Z</time>
      </trkpt>
      <trkpt lat="43.79188" lon="5.20364">
        <ele>458.045013</ele>
        <time>2017-05-21T10:44:26Z</time>
      </trkpt>
      <trkpt lat="43.79186" lon="5.20391">
        <ele>460.329193</ele>
        <time>2017-05-21T10:44:43Z</time>
      </trkpt>
      <trkpt lat="43.79181" lon="5.20402">
        <ele>461.576233</ele>
        <time>2017-05-21T10:44:51Z</time>
      </trkpt>
      <trkpt lat="43.7918" lon="5.20415">
        <ele>462.577545</ele>
        <time>2017-05-21T10:44:59Z</time>
      </trkpt>
      <trkpt lat="43.79192" lon="5.20435">
        <ele>461.720001</ele>
        <time>2017-05-21T10:45:24Z</time>
      </trkpt>
      <trkpt lat="43.79195" lon="5.20461">
        <ele>464.656128</ele>
        <time>2017-05-21T10:46:14Z</time>
      </trkpt>
      <trkpt lat="43.79193" lon="5.20474">
        <ele>466.414459</ele>
        <time>2017-05-21T10:46:21Z</time>
      </trkpt>
      <trkpt lat="43.79198" lon="5.20499">
        <ele>471.640747</ele>
        <time>2017-05-21T10:46:38Z</time>
      </trkpt>
      <trkpt lat="43.79208" lon="5.20521">
        <ele>481.552917</ele>
        <time>2017-05-21T10:47:02Z</time>
      </trkpt>
      <trkpt lat="43.79216" lon="5.20529">
        <ele>488.007538</ele>
        <time>2017-05-21T10:47:16Z</time>
      </trkpt>
      <trkpt lat="43.79216" lon="5.20541">
        <ele>491.594055</ele>
        <time>2017-05-21T10:47:31Z</time>
      </trkpt>
      <trkpt lat="43.79211" lon="5.20553">
        <ele>491.028046</ele>
        <time>2017-05-21T10:47:45Z</time>
      </trkpt>
      <trkpt lat="43.79196" lon="5.20568">
        <ele>482.02124</ele>
        <time>2017-05-21T10:48:17Z</time>
      </trkpt>
      <trkpt lat="43.79185" lon="5.20605">
        <ele>486.910004</ele>
        <time>2017-05-21T10:48:43Z</time>
      </trkpt>
      <trkpt lat="43.79191" lon="5.20658">
        <ele>492.780243</ele>
        <time>2017-05-21T10:49:13Z</time>
      </trkpt>
      <trkpt lat="43.79185" lon="5.20669">
        <ele>495.011261</ele>
        <time>2017-05-21T10:49:22Z</time>
      </trkpt>
      <trkpt lat="43.79187" lon="5.20682">
        <ele>496.246613</ele>
        <time>2017-05-21T10:49:26Z</time>
      </trkpt>
      <trkpt lat="43.79176" lon="5.20705">
        <ele>500.712006</ele>
        <time>2017-05-21T10:49:42Z</time>
      </trkpt>
      <trkpt lat="43.79175" lon="5.20733">
        <ele>503.454651</ele>
        <time>2017-05-21T10:49:56Z</time>
      </trkpt>
      <trkpt lat="43.79195" lon="5.2082">
        <ele>516.242432</ele>
        <time>2017-05-21T10:51:16Z</time>
      </trkpt>
      <trkpt lat="43.79214" lon="5.2085">
        <ele>521.960999</ele>
        <time>2017-05-21T10:52:43Z</time>
      </trkpt>
      <trkpt lat="43.79223" lon="5.20852">
        <ele>523.22937</ele>
        <time>2017-05-21T10:53:18Z</time>
      </trkpt>
      <trkpt lat="43.79235" lon="5.20871">
        <ele>525.246216</ele>
        <time>2017-05-21T10:53:53Z</time>
      </trkpt>
      <trkpt lat="43.79257" lon="5.20945">
        <ele>545.326843</ele>
        <time>2017-05-21T10:55:28Z</time>
      </trkpt>
      <trkpt lat="43.79255" lon="5.20984">
        <ele>549.009521</ele>
        <time>2017-05-21T10:55:58Z</time>
      </trkpt>
      <trkpt lat="43.79259" lon="5.20996">
        <ele>551.618225</ele>
        <time>2017-05-21T10:56:08Z</time>
      </trkpt>
      <trkpt lat="43.79262" lon="5.21021">
        <ele>551.910278</ele>
        <time>2017-05-21T10:56:30Z</time>
      </trkpt>
      <trkpt lat="43.7927" lon="5.21028">
        <ele>553.372131</ele>
        <time>2017-05-21T10:56:43Z</time>
      </trkpt>
      <trkpt lat="43.79274" lon="5.21053">
        <ele>554.058411</ele>
        <time>2017-05-21T10:57:23Z</time>
      </trkpt>
      <trkpt lat="43.7927" lon="5.21065">
        <ele>551.98645</ele>
        <time>2017-05-21T10:57:33Z</time>
      </trkpt>
      <trkpt lat="43.79254" lon="5.21078">
        <ele>551.039673</ele>
        <time>2017-05-21T10:57:51Z</time>
      </trkpt>
      <trkpt lat="43.79247" lon="5.21101">
        <ele>551.954041</ele>
        <time>2017-05-21T10:58:14Z</time>
      </trkpt>
      <trkpt lat="43.79247" lon="5.21115">
        <ele>552.786133</ele>
        <time>2017-05-21T10:58:24Z</time>
      </trkpt>
      <trkpt lat="43.79274" lon="5.21229">
        <ele>565.231018</ele>
        <time>2017-05-21T11:01:34Z</time>
      </trkpt>
      <trkpt lat="43.79258" lon="5.21213">
        <ele>557.626831</ele>
        <time>2017-05-21T11:02:08Z</time>
      </trkpt>
      <trkpt lat="43.79253" lon="5.21224">
        <ele>558.284851</ele>
        <time>2017-05-21T11:02:31Z</time>
      </trkpt>
      <trkpt lat="43.79248" lon="5.21265">
        <ele>560.495117</ele>
        <time>2017-05-21T11:02:55Z</time>
      </trkpt>
      <trkpt lat="43.79251" lon="5.21277">
        <ele>561.848389</ele>
        <time>2017-05-21T11:03:04Z</time>
      </trkpt>
      <trkpt lat="43.79244" lon="5.21301">
        <ele>561.683594</ele>
        <time>2017-05-21T11:04:06Z</time>
      </trkpt>
      <trkpt lat="43.79219" lon="5.21315">
        <ele>554.747498</ele>
        <time>2017-05-21T11:05:06Z</time>
      </trkpt>
      <trkpt lat="43.792" lon="5.21285">
        <ele>550.274414</ele>
        <time>2017-05-21T11:05:56Z</time>
      </trkpt>
      <trkpt lat="43.79185" lon="5.21239">
        <ele>558.428284</ele>
        <time>2017-05-21T11:07:36Z</time>
      </trkpt>
      <trkpt lat="43.79179" lon="5.21202">
        <ele>561.125122</ele>
        <time>2017-05-21T11:09:08Z</time>
      </trkpt>
      <trkpt lat="43.7916" lon="5.21174">
        <ele>562.202393</ele>
        <time>2017-05-21T11:09:55Z</time>
      </trkpt>
      <trkpt lat="43.79154" lon="5.21134">
        <ele>561.668274</ele>
        <time>2017-05-21T11:10:19Z</time>
      </trkpt>
      <trkpt lat="43.79158" lon="5.21108">
        <ele>561.450806</ele>
        <time>2017-05-21T11:10:33Z</time>
      </trkpt>
      <trkpt lat="43.79149" lon="5.21068">
        <ele>563.539429</ele>
        <time>2017-05-21T11:10:51Z</time>
      </trkpt>
      <trkpt lat="43.79143" lon="5.2103">
        <ele>564.973938</ele>
        <time>2017-05-21T11:11:07Z</time>
      </trkpt>
      <trkpt lat="43.79126" lon="5.21021">
        <ele>566.024414</ele>
        <time>2017-05-21T11:11:18Z</time>
      </trkpt>
      <trkpt lat="43.79117" lon="5.21025">
        <ele>565.402832</ele>
        <time>2017-05-21T11:11:26Z</time>
      </trkpt>
      <trkpt lat="43.79109" lon="5.2102">
        <ele>565.089172</ele>
        <time>2017-05-21T11:11:33Z</time>
      </trkpt>
      <trkpt lat="43.79088" lon="5.20972">
        <ele>565.290405</ele>
        <time>2017-05-21T11:11:46Z</time>
      </trkpt>
      <trkpt lat="43.79084" lon="5.20941">
        <ele>564.565613</ele>
        <time>2017-05-21T11:11:51Z</time>
      </trkpt>
      <trkpt lat="43.79077" lon="5.20929">
        <ele>563.987244</ele>
        <time>2017-05-21T11:11:54Z</time>
      </trkpt>
      <trkpt lat="43.7906" lon="5.20917">
        <ele>562.361206</ele>
        <time>2017-05-21T11:12:00Z</time>
      </trkpt>
      <trkpt lat="43.79045" lon="5.20897">
        <ele>560.673828</ele>
        <time>2017-05-21T11:12:05Z</time>
      </trkpt>
      <trkpt lat="43.79003" lon="5.20876">
        <ele>555.69635</ele>
        <time>2017-05-21T11:12:15Z</time>
      </trkpt>
      <trkpt lat="43.78948" lon="5.20874">
        <ele>545.489868</ele>
        <time>2017-05-21T11:12:43Z</time>
      </trkpt>
      <trkpt lat="43.78919" lon="5.20884">
        <ele>540.328735</ele>
        <time>2017-05-21T11:12:52Z</time>
      </trkpt>
      <trkpt lat="43.78911" lon="5.20893">
        <ele>539.181519</ele>
        <time>2017-05-21T11:12:56Z</time>
      </trkpt>
      <trkpt lat="43.78901" lon="5.20894">
        <ele>538.115417</ele>
        <time>2017-05-21T11:13:02Z</time>
      </trkpt>
      <trkpt lat="43.78886" lon="5.20911">
        <ele>537.095764</ele>
        <time>2017-05-21T11:13:09Z</time>
      </trkpt>
      <trkpt lat="43.78876" lon="5.20914">
        <ele>536.451111</ele>
        <time>2017-05-21T11:13:13Z</time>
      </trkpt>
      <trkpt lat="43.78842" lon="5.20966">
        <ele>529.157593</ele>
        <time>2017-05-21T11:13:33Z</time>
      </trkpt>
      <trkpt lat="43.78819" lon="5.20988">
        <ele>523.679016</ele>
        <time>2017-05-21T11:13:48Z</time>
      </trkpt>
      <trkpt lat="43.7881" lon="5.20983">
        <ele>522.651917</ele>
        <time>2017-05-21T11:13:53Z</time>
      </trkpt>
      <trkpt lat="43.78774" lon="5.21007">
        <ele>510.277008</ele>
        <time>2017-05-21T11:14:10Z</time>
      </trkpt>
      <trkpt lat="43.78757" lon="5.20995">
        <ele>506.674774</ele>
        <time>2017-05-21T11:14:18Z</time>
      </trkpt>
      <trkpt lat="43.78724" lon="5.20993">
        <ele>497.549561</ele>
        <time>2017-05-21T11:14:32Z</time>
      </trkpt>
      <trkpt lat="43.78715" lon="5.21002">
        <ele>494.65976</ele>
        <time>2017-05-21T11:14:38Z</time>
      </trkpt>
      <trkpt lat="43.78705" lon="5.21002">
        <ele>492.445648</ele>
        <time>2017-05-21T11:14:45Z</time>
      </trkpt>
      <trkpt lat="43.787" lon="5.20989">
        <ele>492.197266</ele>
        <time>2017-05-21T11:14:49Z</time>
      </trkpt>
      <trkpt lat="43.78683" lon="5.20972">
        <ele>489.259399</ele>
        <time>2017-05-21T11:14:57Z</time>
      </trkpt>
      <trkpt lat="43.7868" lon="5.2096">
        <ele>487.63501</ele>
        <time>2017-05-21T11:15:01Z</time>
      </trkpt>
      <trkpt lat="43.78649" lon="5.20941">
        <ele>482.237091</ele>
        <time>2017-05-21T11:15:16Z</time>
      </trkpt>
      <trkpt lat="43.78609" lon="5.20933">
        <ele>473.446564</ele>
        <time>2017-05-21T11:15:45Z</time>
      </trkpt>
      <trkpt lat="43.7854" lon="5.20905">
        <ele>458.722626</ele>
        <time>2017-05-21T11:16:01Z</time>
      </trkpt>
      <trkpt lat="43.78517" lon="5.20907">
        <ele>457.866058</ele>
        <time>2017-05-21T11:16:07Z</time>
      </trkpt>
      <trkpt lat="43.78505" lon="5.20905">
        <ele>457.615906</ele>
        <time>2017-05-21T11:16:10Z</time>
      </trkpt>
      <trkpt lat="43.78485" lon="5.20909">
        <ele>452.791962</ele>
        <time>2017-05-21T11:16:17Z</time>
      </trkpt>
      <trkpt lat="43.78449" lon="5.20932">
        <ele>446.803467</ele>
        <time>2017-05-21T11:16:39Z</time>
      </trkpt>
      <trkpt lat="43.78413" lon="5.20946">
        <ele>447.120392</ele>
        <time>2017-05-21T11:17:03Z</time>
      </trkpt>
      <trkpt lat="43.7839" lon="5.20972">
        <ele>444.170746</ele>
        <time>2017-05-21T11:17:16Z</time>
      </trkpt>
      <trkpt lat="43.78346" lon="5.20979">
        <ele>440.136322</ele>
        <time>2017-05-21T11:17:34Z</time>
      </trkpt>
      <trkpt lat="43.7833" lon="5.20966">
        <ele>436.83963</ele>
        <time>2017-05-21T11:17:41Z</time>
      </trkpt>
      <trkpt lat="43.78289" lon="5.20956">
        <ele>423.339996</ele>
        <time>2017-05-21T11:17:51Z</time>
      </trkpt>
      <trkpt lat="43.7827" lon="5.20946">
        <ele>420.621887</ele>
        <time>2017-05-21T11:17:57Z</time>
      </trkpt>
      <trkpt lat="43.78264" lon="5.20936">
        <ele>419.67041</ele>
        <time>2017-05-21T11:18:02Z</time>
      </trkpt>
      <trkpt lat="43.78226" lon="5.20935">
        <ele>418.434967</ele>
        <time>2017-05-21T11:18:26Z</time>
      </trkpt>
      <trkpt lat="43.78198" lon="5.20941">
        <ele>419.699707</ele>
        <time>2017-05-21T11:18:36Z</time>
      </trkpt>
      <trkpt lat="43.78177" lon="5.20952">
        <ele>419.094757</ele>
        <time>2017-05-21T11:18:47Z</time>
      </trkpt>
      <trkpt lat="43.78144" lon="5.20986">
        <ele>419.563812</ele>
        <time>2017-05-21T11:19:10Z</time>
      </trkpt>
      <trkpt lat="43.78134" lon="5.20991">
        <ele>417.666016</ele>
        <time>2017-05-21T11:19:15Z</time>
      </trkpt>
      <trkpt lat="43.78096" lon="5.20976">
        <ele>411.051056</ele>
        <time>2017-05-21T11:19:33Z</time>
      </trkpt>
      <trkpt lat="43.78053" lon="5.20978">
        <ele>407.980011</ele>
        <time>2017-05-21T11:19:47Z</time>
      </trkpt>
      <trkpt lat="43.78033" lon="5.20974">
        <ele>408.279999</ele>
        <time>2017-05-21T11:20:06Z</time>
      </trkpt>
      <trkpt lat="43.78013" lon="5.20977">
        <ele>407.934998</ele>
        <time>2017-05-21T11:20:27Z</time>
      </trkpt>
      <trkpt lat="43.77967" lon="5.20938">
        <ele>408.956482</ele>
        <time>2017-05-21T11:20:44Z</time>
      </trkpt>
      <trkpt lat="43.77949" lon="5.20931">
        <ele>407.540009</ele>
        <time>2017-05-21T11:20:49Z</time>
      </trkpt>
      <trkpt lat="43.77931" lon="5.20934">
        <ele>404.288818</ele>
        <time>2017-05-21T11:20:57Z</time>
      </trkpt>
      <trkpt lat="43.77878" lon="5.20918">
        <ele>392.474854</ele>
        <time>2017-05-21T11:21:13Z</time>
      </trkpt>
      <trkpt lat="43.7787" lon="5.20909">
        <ele>390.272766</ele>
        <time>2017-05-21T11:21:17Z</time>
      </trkpt>
      <trkpt lat="43.7785" lon="5.20903">
        <ele>385.475647</ele>
        <time>2017-05-21T11:21:27Z</time>
      </trkpt>
      <trkpt lat="43.77839" lon="5.20907">
        <ele>383.260162</ele>
        <time>2017-05-21T11:21:33Z</time>
      </trkpt>
      <trkpt lat="43.77817" lon="5.20906">
        <ele>380.58197</ele>
        <time>2017-05-21T11:21:41Z</time>
      </trkpt>
      <trkpt lat="43.77798" lon="5.20917">
        <ele>379.389435</ele>
        <time>2017-05-21T11:21:46Z</time>
      </trkpt>
      <trkpt lat="43.7779" lon="5.20927">
        <ele>378.268005</ele>
        <time>2017-05-21T11:21:49Z</time>
      </trkpt>
      <trkpt lat="43.77756" lon="5.20938">
        <ele>371.829895</ele>
        <time>2017-05-21T11:21:58Z</time>
      </trkpt>
      <trkpt lat="43.77716" lon="5.20958">
        <ele>365.363617</ele>
        <time>2017-05-21T11:22:07Z</time>
      </trkpt>
      <trkpt lat="43.77706" lon="5.20968">
        <ele>364.285522</ele>
        <time>2017-05-21T11:22:10Z</time>
      </trkpt>
      <trkpt lat="43.77659" lon="5.20993">
        <ele>363.141541</ele>
        <time>2017-05-21T11:22:41Z</time>
      </trkpt>
      <trkpt lat="43.77631" lon="5.2099">
        <ele>364.461304</ele>
        <time>2017-05-21T11:23:14Z</time>
      </trkpt>
      <trkpt lat="43.77603" lon="5.20997">
        <ele>365.047882</ele>
        <time>2017-05-21T11:23:53Z</time>
      </trkpt>
      <trkpt lat="43.77588" lon="5.21015">
        <ele>365.064178</ele>
        <time>2017-05-21T11:24:02Z</time>
      </trkpt>
      <trkpt lat="43.77568" lon="5.2102">
        <ele>365.033875</ele>
        <time>2017-05-21T11:24:09Z</time>
      </trkpt>
      <trkpt lat="43.7756" lon="5.21027">
        <ele>365.711639</ele>
        <time>2017-05-21T11:24:19Z</time>
      </trkpt>
      <trkpt lat="43.77551" lon="5.21024">
        <ele>364.308807</ele>
        <time>2017-05-21T11:24:23Z</time>
      </trkpt>
      <trkpt lat="43.77535" lon="5.21038">
        <ele>364.84256</ele>
        <time>2017-05-21T11:24:33Z</time>
      </trkpt>
      <trkpt lat="43.77529" lon="5.21051">
        <ele>364.88681</ele>
        <time>2017-05-21T11:24:40Z</time>
      </trkpt>
      <trkpt lat="43.77499" lon="5.21084">
        <ele>364.402527</ele>
        <time>2017-05-21T11:25:00Z</time>
      </trkpt>
      <trkpt lat="43.77489" lon="5.21085">
        <ele>363.376099</ele>
        <time>2017-05-21T11:25:05Z</time>
      </trkpt>
      <trkpt lat="43.77404" lon="5.21144">
        <ele>356.646027</ele>
        <time>2017-05-21T11:25:25Z</time>
      </trkpt>
      <trkpt lat="43.77349" lon="5.21203">
        <ele>352.3284</ele>
        <time>2017-05-21T11:25:37Z</time>
      </trkpt>
      <trkpt lat="43.77279" lon="5.21212">
        <ele>339.078644</ele>
        <time>2017-05-21T11:25:50Z</time>
      </trkpt>
      <trkpt lat="43.7727" lon="5.2121">
        <ele>336.844086</ele>
        <time>2017-05-21T11:25:53Z</time>
      </trkpt>
      <trkpt lat="43.77249" lon="5.21216">
        <ele>332.951202</ele>
        <time>2017-05-21T11:26:00Z</time>
      </trkpt>
      <trkpt lat="43.77224" lon="5.2124">
        <ele>328.581055</ele>
        <time>2017-05-21T11:26:09Z</time>
      </trkpt>
      <trkpt lat="43.7717" lon="5.2133">
        <ele>319.059998</ele>
        <time>2017-05-21T11:26:30Z</time>
      </trkpt>
      <trkpt lat="43.77055" lon="5.21301">
        <ele>304.235199</ele>
        <time>2017-05-21T11:27:39Z</time>
      </trkpt>
      <trkpt lat="43.77062" lon="5.21291">
        <ele>304.196716</ele>
        <time>2017-05-21T11:27:43Z</time>
      </trkpt>
      <trkpt lat="43.77069" lon="5.21233">
        <ele>302.638397</ele>
        <time>2017-05-21T11:28:00Z</time>
      </trkpt>
      <trkpt lat="43.77068" lon="5.21224">
        <ele>302.260956</ele>
        <time>2017-05-21T11:28:18Z</time>
      </trkpt>
      <trkpt lat="43.77071" lon="5.21212">
        <ele>301.989624</ele>
        <time>2017-05-21T11:28:29Z</time>
      </trkpt>
      <trkpt lat="43.77075" lon="5.2115">
        <ele>300.143982</ele>
        <time>2017-05-21T11:28:44Z</time>
      </trkpt>
      <trkpt lat="43.77076" lon="5.21047">
        <ele>298.53418</ele>
        <time>2017-05-21T11:28:59Z</time>
      </trkpt>
      <trkpt lat="43.7709" lon="5.21004">
        <ele>296.534729</ele>
        <time>2017-05-21T11:29:05Z</time>
      </trkpt>
      <trkpt lat="43.7711" lon="5.20871">
        <ele>287.862732</ele>
        <time>2017-05-21T11:29:19Z</time>
      </trkpt>
      <trkpt lat="43.77116" lon="5.20853">
        <ele>286.240875</ele>
        <time>2017-05-21T11:29:21Z</time>
      </trkpt>
      <trkpt lat="43.77118" lon="5.2081">
        <ele>284.587067</ele>
        <time>2017-05-21T11:29:27Z</time>
      </trkpt>
      <trkpt lat="43.77113" lon="5.20779">
        <ele>285.059998</ele>
        <time>2017-05-21T11:29:32Z</time>
      </trkpt>
      <trkpt lat="43.77113" lon="5.20763">
        <ele>284.808258</ele>
        <time>2017-05-21T11:29:34Z</time>
      </trkpt>
      <trkpt lat="43.77129" lon="5.20727">
        <ele>282.263611</ele>
        <time>2017-05-21T11:29:42Z</time>
      </trkpt>
      <trkpt lat="43.77136" lon="5.20699">
        <ele>281.065704</ele>
        <time>2017-05-21T11:29:51Z</time>
      </trkpt>
      <trkpt lat="43.77145" lon="5.20614">
        <ele>277.647369</ele>
        <time>2017-05-21T11:30:41Z</time>
      </trkpt>
      <trkpt lat="43.77164" lon="5.20524">
        <ele>268.467285</ele>
        <time>2017-05-21T11:30:59Z</time>
      </trkpt>
      <trkpt lat="43.77162" lon="5.20511">
        <ele>268.825684</ele>
        <time>2017-05-21T11:31:03Z</time>
      </trkpt>
      <trkpt lat="43.77152" lon="5.2051">
        <ele>271.154114</ele>
        <time>2017-05-21T11:31:09Z</time>
      </trkpt>
      <trkpt lat="43.77125" lon="5.20524">
        <ele>278.275696</ele>
        <time>2017-05-21T11:31:30Z</time>
      </trkpt>
      <trkpt lat="43.77107" lon="5.20528">
        <ele>281.238281</ele>
        <time>2017-05-21T11:32:04Z</time>
      </trkpt>
      <trkpt lat="43.77085" lon="5.20554">
        <ele>287.94165</ele>
        <time>2017-05-21T11:33:12Z</time>
      </trkpt>
      <trkpt lat="43.7708" lon="5.20565">
        <ele>290.501251</ele>
        <time>2017-05-21T11:33:25Z</time>
      </trkpt>
      <trkpt lat="43.77065" lon="5.20579">
        <ele>294.292297</ele>
        <time>2017-05-21T11:33:51Z</time>
      </trkpt>
      <trkpt lat="43.77033" lon="5.20627">
        <ele>300.959564</ele>
        <time>2017-05-21T11:35:24Z</time>
      </trkpt>
      <trkpt lat="43.77014" lon="5.20633">
        <ele>304.011383</ele>
        <time>2017-05-21T11:35:42Z</time>
      </trkpt>
      <trkpt lat="43.76986" lon="5.20632">
        <ele>307.696075</ele>
        <time>2017-05-21T11:36:07Z</time>
      </trkpt>
      <trkpt lat="43.76959" lon="5.20638">
        <ele>312.722473</ele>
        <time>2017-05-21T11:36:29Z</time>
      </trkpt>
      <trkpt lat="43.76899" lon="5.2063">
        <ele>317.834991</ele>
        <time>2017-05-21T11:37:03Z</time>
      </trkpt>
      <trkpt lat="43.7685" lon="5.20654">
        <ele>319.65567</ele>
        <time>2017-05-21T11:37:28Z</time>
      </trkpt>
      <trkpt lat="43.7682" lon="5.20691">
        <ele>319.520386</ele>
        <time>2017-05-21T11:37:46Z</time>
      </trkpt>
      <trkpt lat="43.76765" lon="5.20771">
        <ele>327.195007</ele>
        <time>2017-05-21T11:38:33Z</time>
      </trkpt>
      <trkpt lat="43.76741" lon="5.20794">
        <ele>330.137512</ele>
        <time>2017-05-21T11:38:55Z</time>
      </trkpt>
      <trkpt lat="43.76713" lon="5.20805">
        <ele>332.767517</ele>
        <time>2017-05-21T11:39:15Z</time>
      </trkpt>
      <trkpt lat="43.76671" lon="5.20842">
        <ele>334.777496</ele>
        <time>2017-05-21T11:39:43Z</time>
      </trkpt>
      <trkpt lat="43.76647" lon="5.20882">
        <ele>334.811829</ele>
        <time>2017-05-21T11:40:01Z</time>
      </trkpt>
      <trkpt lat="43.76615" lon="5.20917">
        <ele>333.182495</ele>
        <time>2017-05-21T11:40:16Z</time>
      </trkpt>
      <trkpt lat="43.76606" lon="5.20922">
        <ele>332.165009</ele>
        <time>2017-05-21T11:40:19Z</time>
      </trkpt>
      <trkpt lat="43.76577" lon="5.20959">
        <ele>330.055145</ele>
        <time>2017-05-21T11:40:32Z</time>
      </trkpt>
      <trkpt lat="43.76541" lon="5.20991">
        <ele>329.169952</ele>
        <time>2017-05-21T11:40:44Z</time>
      </trkpt>
      <trkpt lat="43.76522" lon="5.20993">
        <ele>328.625793</ele>
        <time>2017-05-21T11:40:48Z</time>
      </trkpt>
      <trkpt lat="43.76504" lon="5.20982">
        <ele>328.985779</ele>
        <time>2017-05-21T11:40:52Z</time>
      </trkpt>
      <trkpt lat="43.76474" lon="5.20946">
        <ele>326.230011</ele>
        <time>2017-05-21T11:41:01Z</time>
      </trkpt>
      <trkpt lat="43.7643" lon="5.20861">
        <ele>323.073303</ele>
        <time>2017-05-21T11:41:22Z</time>
      </trkpt>
      <trkpt lat="43.76365" lon="5.20785">
        <ele>320.900116</ele>
        <time>2017-05-21T11:41:48Z</time>
      </trkpt>
      <trkpt lat="43.76348" lon="5.20725">
        <ele>314.071136</ele>
        <time>2017-05-21T11:41:59Z</time>
      </trkpt>
      <trkpt lat="43.7635" lon="5.20647">
        <ele>307.426392</ele>
        <time>2017-05-21T11:42:15Z</time>
      </trkpt>
      <trkpt lat="43.76337" lon="5.20623">
        <ele>304.037415</ele>
        <time>2017-05-21T11:42:20Z</time>
      </trkpt>
      <trkpt lat="43.76327" lon="5.20614">
        <ele>302.689484</ele>
        <time>2017-05-21T11:42:23Z</time>
      </trkpt>
      <trkpt lat="43.76318" lon="5.20613">
        <ele>302.087677</ele>
        <time>2017-05-21T11:42:25Z</time>
      </trkpt>
      <trkpt lat="43.76298" lon="5.206">
        <ele>297.15686</ele>
        <time>2017-05-21T11:42:33Z</time>
      </trkpt>
      <trkpt lat="43.76266" lon="5.206">
        <ele>288.192535</ele>
        <time>2017-05-21T11:42:45Z</time>
      </trkpt>
      <trkpt lat="43.76158" lon="5.20545">
        <ele>264.987793</ele>
        <time>2017-05-21T11:43:14Z</time>
      </trkpt>
      <trkpt lat="43.76128" lon="5.20502">
        <ele>269.93515</ele>
        <time>2017-05-21T11:43:26Z</time>
      </trkpt>
      <trkpt lat="43.76107" lon="5.2049">
        <ele>267.158234</ele>
        <time>2017-05-21T11:43:32Z</time>
      </trkpt>
      <trkpt lat="43.76081" lon="5.20484">
        <ele>260.868683</ele>
        <time>2017-05-21T11:43:39Z</time>
      </trkpt>
      <trkpt lat="43.76041" lon="5.20448">
        <ele>255.793777</ele>
        <time>2017-05-21T11:43:54Z</time>
      </trkpt>
      <trkpt lat="43.76035" lon="5.20437">
        <ele>253.905365</ele>
        <time>2017-05-21T11:43:58Z</time>
      </trkpt>
      <trkpt lat="43.76033" lon="5.20391">
        <ele>252.042374</ele>
        <time>2017-05-21T11:44:08Z</time>
      </trkpt>
      <trkpt lat="43.76046" lon="5.20348">
        <ele>246.935257</ele>
        <time>2017-05-21T11:44:16Z</time>
      </trkpt>
      <trkpt lat="43.76059" lon="5.20327">
        <ele>248.790344</ele>
        <time>2017-05-21T11:44:24Z</time>
      </trkpt>
      <trkpt lat="43.76057" lon="5.20278">
        <ele>242.773209</ele>
        <time>2017-05-21T11:44:35Z</time>
      </trkpt>
      <trkpt lat="43.76049" lon="5.20244">
        <ele>241.229553</ele>
        <time>2017-05-21T11:44:41Z</time>
      </trkpt>
      <trkpt lat="43.76027" lon="5.20197">
        <ele>236.223282</ele>
        <time>2017-05-21T11:44:56Z</time>
      </trkpt>
      <trkpt lat="43.76016" lon="5.2011">
        <ele>227.168747</ele>
        <time>2017-05-21T11:45:19Z</time>
      </trkpt>
      <trkpt lat="43.76015" lon="5.20081">
        <ele>223.930618</ele>
        <time>2017-05-21T11:45:27Z</time>
      </trkpt>
      <trkpt lat="43.7605" lon="5.20053">
        <ele>222.297653</ele>
        <time>2017-05-21T11:45:39Z</time>
      </trkpt>
      <trkpt lat="43.76058" lon="5.20038">
        <ele>219.282501</ele>
        <time>2017-05-21T11:45:42Z</time>
      </trkpt>
      <trkpt lat="43.76076" lon="5.20026">
        <ele>213.515686</ele>
        <time>2017-05-21T11:45:47Z</time>
      </trkpt>
      <trkpt lat="43.76087" lon="5.2">
        <ele>208.919998</ele>
        <time>2017-05-21T11:45:53Z</time>
      </trkpt>
      <trkpt lat="43.76098" lon="5.19931">
        <ele>202.744705</ele>
        <time>2017-05-21T11:46:16Z</time>
      </trkpt>
      <trkpt lat="43.76111" lon="5.19912">
        <ele>200.777496</ele>
        <time>2017-05-21T11:46:31Z</time>
      </trkpt>
      <trkpt lat="43.7614" lon="5.19901">
        <ele>197.490005</ele>
        <time>2017-05-21T11:47:18Z</time>
      </trkpt>
      <trkpt lat="43.76161" lon="5.19906">
        <ele>197.671616</ele>
        <time>2017-05-21T11:47:27Z</time>
      </trkpt>
      <trkpt lat="43.76154" lon="5.19895">
        <ele>195.9608</ele>
        <time>2017-05-21T11:47:34Z</time>
      </trkpt>
      <trkpt lat="43.76134" lon="5.19881">
        <ele>195.198746</ele>
        <time>2017-05-21T11:47:42Z</time>
      </trkpt>
      <trkpt lat="43.76117" lon="5.19865">
        <ele>194.032501</ele>
        <time>2017-05-21T11:47:48Z</time>
      </trkpt>
      <trkpt lat="43.76068" lon="5.19862">
        <ele>198.157501</ele>
        <time>2017-05-21T11:48:03Z</time>
      </trkpt>
      <trkpt lat="43.7606" lon="5.19855">
        <ele>198.285492</ele>
        <time>2017-05-21T11:48:07Z</time>
      </trkpt>
      <trkpt lat="43.76058" lon="5.19839">
        <ele>196.838333</ele>
        <time>2017-05-21T11:48:11Z</time>
      </trkpt>
      <trkpt lat="43.76064" lon="5.19809">
        <ele>192.647217</ele>
        <time>2017-05-21T11:48:19Z</time>
      </trkpt>
      <trkpt lat="43.76052" lon="5.19771">
        <ele>193.698257</ele>
        <time>2017-05-21T11:48:34Z</time>
      </trkpt>
      <trkpt lat="43.76053" lon="5.19744">
        <ele>194.266708</ele>
        <time>2017-05-21T11:48:51Z</time>
      </trkpt>
      <trkpt lat="43.7606" lon="5.19706">
        <ele>193.244995</ele>
        <time>2017-05-21T11:49:16Z</time>
      </trkpt>
      <trkpt lat="43.76056" lon="5.19612">
        <ele>196.08371</ele>
        <time>2017-05-21T11:50:10Z</time>
      </trkpt>
      <trkpt lat="43.76049" lon="5.19589">
        <ele>197.452499</ele>
        <time>2017-05-21T11:50:19Z</time>
      </trkpt>
      <trkpt lat="43.76041" lon="5.19581">
        <ele>198.630005</ele>
        <time>2017-05-21T11:50:23Z</time>
      </trkpt>
      <trkpt lat="43.75975" lon="5.19544">
        <ele>206.34375</ele>
        <time>2017-05-21T11:50:57Z</time>
      </trkpt>
      <trkpt lat="43.75932" lon="5.1954">
        <ele>206.534805</ele>
        <time>2017-05-21T11:51:14Z</time>
      </trkpt>
      <trkpt lat="43.75907" lon="5.19531">
        <ele>203.977783</ele>
        <time>2017-05-21T11:51:19Z</time>
      </trkpt>
      <trkpt lat="43.75849" lon="5.19523">
        <ele>197.356628</ele>
        <time>2017-05-21T11:51:30Z</time>
      </trkpt>
      <trkpt lat="43.75822" lon="5.19542">
        <ele>195.931244</ele>
        <time>2017-05-21T11:51:37Z</time>
      </trkpt>
      <trkpt lat="43.75816" lon="5.19532">
        <ele>193.367493</ele>
        <time>2017-05-21T11:51:40Z</time>
      </trkpt>
      <trkpt lat="43.75831" lon="5.19389">
        <ele>179.975479</ele>
        <time>2017-05-21T11:51:54Z</time>
      </trkpt>
      <trkpt lat="43.75809" lon="5.19249">
        <ele>171.67775</ele>
        <time>2017-05-21T11:52:06Z</time>
      </trkpt>
      <trkpt lat="43.75802" lon="5.19228">
        <ele>171.004837</ele>
        <time>2017-05-21T11:52:08Z</time>
      </trkpt>
      <trkpt lat="43.7575" lon="5.19148">
        <ele>168.738358</ele>
        <time>2017-05-21T11:52:20Z</time>
      </trkpt>
      <trkpt lat="43.75707" lon="5.1907">
        <ele>163.398956</ele>
        <time>2017-05-21T11:52:32Z</time>
      </trkpt>
      <trkpt lat="43.7568" lon="5.19011">
        <ele>159.782501</ele>
        <time>2017-05-21T11:52:40Z</time>
      </trkpt>
      <trkpt lat="43.75641" lon="5.18965">
        <ele>160.152496</ele>
        <time>2017-05-21T11:52:48Z</time>
      </trkpt>
      <trkpt lat="43.75602" lon="5.18897">
        <ele>155.731628</ele>
        <time>2017-05-21T11:53:00Z</time>
      </trkpt>
      <trkpt lat="43.75576" lon="5.18819">
        <ele>147.456253</ele>
        <time>2017-05-21T11:53:08Z</time>
      </trkpt>
      <trkpt lat="43.75574" lon="5.18804">
        <ele>146.243744</ele>
        <time>2017-05-21T11:53:10Z</time>
      </trkpt>
      <trkpt lat="43.7559" lon="5.1874">
        <ele>141.435944</ele>
        <time>2017-05-21T11:53:18Z</time>
      </trkpt>
      <trkpt lat="43.75599" lon="5.18725">
        <ele>140.444321</ele>
        <time>2017-05-21T11:53:21Z</time>
      </trkpt>
      <trkpt lat="43.7563" lon="5.18699">
        <ele>139.635254</ele>
        <time>2017-05-21T11:53:30Z</time>
      </trkpt>
      <trkpt lat="43.7565" lon="5.18689">
        <ele>139.767624</ele>
        <time>2017-05-21T11:53:34Z</time>
      </trkpt>
      <trkpt lat="43.75678" lon="5.18665">
        <ele>139.833893</ele>
        <time>2017-05-21T11:53:42Z</time>
      </trkpt>
      <trkpt lat="43.7569" lon="5.18644">
        <ele>140.130859</ele>
        <time>2017-05-21T11:53:51Z</time>
      </trkpt>
      <trkpt lat="43.75698" lon="5.18605">
        <ele>143.048553</ele>
        <time>2017-05-21T11:54:10Z</time>
      </trkpt>
      <trkpt lat="43.75695" lon="5.18539">
        <ele>146.389191</ele>
        <time>2017-05-21T11:54:39Z</time>
      </trkpt>
      <trkpt lat="43.75697" lon="5.18525">
        <ele>147.256622</ele>
        <time>2017-05-21T11:54:44Z</time>
      </trkpt>
      <trkpt lat="43.75709" lon="5.18502">
        <ele>149.077499</ele>
        <time>2017-05-21T11:54:52Z</time>
      </trkpt>
      <trkpt lat="43.75774" lon="5.18409">
        <ele>156.076248</ele>
        <time>2017-05-21T11:55:31Z</time>
      </trkpt>
      <trkpt lat="43.75801" lon="5.18354">
        <ele>158.171143</ele>
        <time>2017-05-21T11:55:57Z</time>
      </trkpt>
      <trkpt lat="43.75832" lon="5.18261">
        <ele>158.054993</ele>
        <time>2017-05-21T11:56:41Z</time>
      </trkpt>
      <trkpt lat="43.75841" lon="5.18172">
        <ele>157.394241</ele>
        <time>2017-05-21T11:56:53Z</time>
      </trkpt>
      <trkpt lat="43.75835" lon="5.18156">
        <ele>156.998657</ele>
        <time>2017-05-21T11:56:55Z</time>
      </trkpt>
      <trkpt lat="43.75809" lon="5.18116">
        <ele>156.179382</ele>
        <time>2017-05-21T11:57:01Z</time>
      </trkpt>
      <trkpt lat="43.75829" lon="5.18116">
        <ele>156.731293</ele>
        <time>2017-05-21T11:57:18Z</time>
      </trkpt>
      <trkpt lat="43.75856" lon="5.18104">
        <ele>157.774994</ele>
        <time>2017-05-21T11:57:32Z</time>
      </trkpt>
      <trkpt lat="43.76017" lon="5.17907">
        <ele>154.644943</ele>
        <time>2017-05-21T11:58:30Z</time>
      </trkpt>
      <trkpt lat="43.76074" lon="5.17827">
        <ele>166.361252</ele>
        <time>2017-05-21T11:59:06Z</time>
      </trkpt>
      <trkpt lat="43.76083" lon="5.17805">
        <ele>168.738937</ele>
        <time>2017-05-21T11:59:16Z</time>
      </trkpt>
      <trkpt lat="43.76091" lon="5.17767">
        <ele>171.612518</ele>
        <time>2017-05-21T11:59:29Z</time>
      </trkpt>
      <trkpt lat="43.76099" lon="5.1776">
        <ele>174.246994</ele>
        <time>2017-05-21T11:59:34Z</time>
      </trkpt>
      <trkpt lat="43.76111" lon="5.17725">
        <ele>177.765656</ele>
        <time>2017-05-21T11:59:52Z</time>
      </trkpt>
      <trkpt lat="43.76132" lon="5.17634">
        <ele>180.7108</ele>
        <time>2017-05-21T12:00:35Z</time>
      </trkpt>
      <trkpt lat="43.76152" lon="5.17608">
        <ele>184.683319</ele>
        <time>2017-05-21T12:00:57Z</time>
      </trkpt>
      <trkpt lat="43.76155" lon="5.17596">
        <ele>184.541245</ele>
        <time>2017-05-21T12:01:04Z</time>
      </trkpt>
      <trkpt lat="43.76135" lon="5.17567">
        <ele>178.223618</ele>
        <time>2017-05-21T12:01:26Z</time>
      </trkpt>
      <trkpt lat="43.76135" lon="5.17554">
        <ele>177.521255</ele>
        <time>2017-05-21T12:01:33Z</time>
      </trkpt>
      <trkpt lat="43.76146" lon="5.17531">
        <ele>179.580856</ele>
        <time>2017-05-21T12:01:48Z</time>
      </trkpt>
      <trkpt lat="43.76154" lon="5.17523">
        <ele>181.24585</ele>
        <time>2017-05-21T12:01:55Z</time>
      </trkpt>
      <trkpt lat="43.76182" lon="5.17514">
        <ele>186.399994</ele>
        <time>2017-05-21T12:02:12Z</time>
      </trkpt>
      <trkpt lat="43.76186" lon="5.17499">
        <ele>186.960007</ele>
        <time>2017-05-21T12:02:17Z</time>
      </trkpt>
      <trkpt lat="43.76183" lon="5.17414">
        <ele>190.773117</ele>
        <time>2017-05-21T12:02:44Z</time>
      </trkpt>
      <trkpt lat="43.76186" lon="5.17388">
        <ele>193.717575</ele>
        <time>2017-05-21T12:02:54Z</time>
      </trkpt>
      <trkpt lat="43.76186" lon="5.17333">
        <ele>196.088974</ele>
        <time>2017-05-21T12:03:13Z</time>
      </trkpt>
      <trkpt lat="43.76194" lon="5.17242">
        <ele>194.183105</ele>
        <time>2017-05-21T12:03:28Z</time>
      </trkpt>
      <trkpt lat="43.76192" lon="5.17224">
        <ele>192.76741</ele>
        <time>2017-05-21T12:03:31Z</time>
      </trkpt>
      <trkpt lat="43.76195" lon="5.17179">
        <ele>190.971313</ele>
        <time>2017-05-21T12:03:38Z</time>
      </trkpt>
      <trkpt lat="43.76199" lon="5.17163">
        <ele>191.702682</ele>
        <time>2017-05-21T12:03:41Z</time>
      </trkpt>
      <trkpt lat="43.76207" lon="5.17155">
        <ele>193.026611</ele>
        <time>2017-05-21T12:03:47Z</time>
      </trkpt>
      <trkpt lat="43.76215" lon="5.17119">
        <ele>195.535034</ele>
        <time>2017-05-21T12:04:29Z</time>
      </trkpt>
      <trkpt lat="43.76215" lon="5.17093">
        <ele>197.649673</ele>
        <time>2017-05-21T12:04:54Z</time>
      </trkpt>
      <trkpt lat="43.76219" lon="5.17081">
        <ele>199.451202</ele>
        <time>2017-05-21T12:05:06Z</time>
      </trkpt>
      <trkpt lat="43.76219" lon="5.17027">
        <ele>203.056702</ele>
        <time>2017-05-21T12:05:36Z</time>
      </trkpt>
      <trkpt lat="43.76229" lon="5.17004">
        <ele>207.103149</ele>
        <time>2017-05-21T12:05:52Z</time>
      </trkpt>
      <trkpt lat="43.7623" lon="5.16978">
        <ele>207.304047</ele>
        <time>2017-05-21T12:06:04Z</time>
      </trkpt>
      <trkpt lat="43.76241" lon="5.16953">
        <ele>210.248749</ele>
        <time>2017-05-21T12:06:16Z</time>
      </trkpt>
      <trkpt lat="43.76243" lon="5.16938">
        <ele>210.775284</ele>
        <time>2017-05-21T12:06:20Z</time>
      </trkpt>
      <trkpt lat="43.76235" lon="5.16878">
        <ele>208.257599</ele>
        <time>2017-05-21T12:06:34Z</time>
      </trkpt>
      <trkpt lat="43.76225" lon="5.16851">
        <ele>206.060226</ele>
        <time>2017-05-21T12:06:40Z</time>
      </trkpt>
      <trkpt lat="43.76217" lon="5.16807">
        <ele>205.411697</ele>
        <time>2017-05-21T12:06:52Z</time>
      </trkpt>
      <trkpt lat="43.76211" lon="5.16724">
        <ele>207.799774</ele>
        <time>2017-05-21T12:07:15Z</time>
      </trkpt>
      <trkpt lat="43.76199" lon="5.16651">
        <ele>206.88855</ele>
        <time>2017-05-21T12:07:31Z</time>
      </trkpt>
      <trkpt lat="43.76208" lon="5.16607">
        <ele>206.845749</ele>
        <time>2017-05-21T12:07:40Z</time>
      </trkpt>
      <trkpt lat="43.76215" lon="5.16595">
        <ele>207.161072</ele>
        <time>2017-05-21T12:07:43Z</time>
      </trkpt>
      <trkpt lat="43.76235" lon="5.16542">
        <ele>205.679565</ele>
        <time>2017-05-21T12:07:56Z</time>
      </trkpt>
      <trkpt lat="43.76243" lon="5.16531">
        <ele>206.514435</ele>
        <time>2017-05-21T12:08:00Z</time>
      </trkpt>
      <trkpt lat="43.76247" lon="5.16517">
        <ele>206.492416</ele>
        <time>2017-05-21T12:08:03Z</time>
      </trkpt>
      <trkpt lat="43.76235" lon="5.16491">
        <ele>202.809296</ele>
        <time>2017-05-21T12:08:09Z</time>
      </trkpt>
      <trkpt lat="43.76229" lon="5.16462">
        <ele>202.657257</ele>
        <time>2017-05-21T12:08:14Z</time>
      </trkpt>
      <trkpt lat="43.76211" lon="5.16423">
        <ele>197.256607</ele>
        <time>2017-05-21T12:08:22Z</time>
      </trkpt>
      <trkpt lat="43.76207" lon="5.16381">
        <ele>194.066147</ele>
        <time>2017-05-21T12:08:29Z</time>
      </trkpt>
      <trkpt lat="43.76199" lon="5.16375">
        <ele>190.981247</ele>
        <time>2017-05-21T12:08:32Z</time>
      </trkpt>
      <trkpt lat="43.76192" lon="5.16362">
        <ele>189.076584</ele>
        <time>2017-05-21T12:08:35Z</time>
      </trkpt>
      <trkpt lat="43.76186" lon="5.16333">
        <ele>186.653641</ele>
        <time>2017-05-21T12:08:42Z</time>
      </trkpt>
      <trkpt lat="43.76189" lon="5.16286">
        <ele>184.744934</ele>
        <time>2017-05-21T12:08:49Z</time>
      </trkpt>
      <trkpt lat="43.76179" lon="5.1626">
        <ele>181.536652</ele>
        <time>2017-05-21T12:08:53Z</time>
      </trkpt>
      <trkpt lat="43.76164" lon="5.16233">
        <ele>176.801254</ele>
        <time>2017-05-21T12:08:58Z</time>
      </trkpt>
      <trkpt lat="43.76157" lon="5.16208">
        <ele>173.591248</ele>
        <time>2017-05-21T12:09:04Z</time>
      </trkpt>
      <trkpt lat="43.76169" lon="5.16186">
        <ele>173.751251</ele>
        <time>2017-05-21T12:09:12Z</time>
      </trkpt>
      <trkpt lat="43.76172" lon="5.16174">
        <ele>172.766251</ele>
        <time>2017-05-21T12:09:15Z</time>
      </trkpt>
      <trkpt lat="43.76157" lon="5.1614">
        <ele>166.149109</ele>
        <time>2017-05-21T12:09:25Z</time>
      </trkpt>
      <trkpt lat="43.7614" lon="5.16121">
        <ele>161.161896</ele>
        <time>2017-05-21T12:09:31Z</time>
      </trkpt>
      <trkpt lat="43.76109" lon="5.16062">
        <ele>151.050003</ele>
        <time>2017-05-21T12:09:43Z</time>
      </trkpt>
      <trkpt lat="43.76091" lon="5.16018">
        <ele>146.13475</ele>
        <time>2017-05-21T12:09:49Z</time>
      </trkpt>
      <trkpt lat="43.76071" lon="5.15986">
        <ele>142.238754</ele>
        <time>2017-05-21T12:09:53Z</time>
      </trkpt>
      <trkpt lat="43.7602" lon="5.1593">
        <ele>135.197495</ele>
        <time>2017-05-21T12:10:10Z</time>
      </trkpt>
      <trkpt lat="43.7601" lon="5.15896">
        <ele>132.872498</ele>
        <time>2017-05-21T12:10:16Z</time>
      </trkpt>
      <trkpt lat="43.75998" lon="5.15868">
        <ele>130.655197</ele>
        <time>2017-05-21T12:10:21Z</time>
      </trkpt>
      <trkpt lat="43.75987" lon="5.15807">
        <ele>126.944923</ele>
        <time>2017-05-21T12:10:29Z</time>
      </trkpt>
      <trkpt lat="43.75978" lon="5.15791">
        <ele>125.816254</ele>
        <time>2017-05-21T12:10:31Z</time>
      </trkpt>
      <trkpt lat="43.75955" lon="5.15763">
        <ele>123.418755</ele>
        <time>2017-05-21T12:10:35Z</time>
      </trkpt>
      <trkpt lat="43.75928" lon="5.15697">
        <ele>119.480034</ele>
        <time>2017-05-21T12:10:43Z</time>
      </trkpt>
      <trkpt lat="43.7592" lon="5.15684">
        <ele>118.277802</ele>
        <time>2017-05-21T12:10:45Z</time>
      </trkpt>
      <trkpt lat="43.75909" lon="5.15678">
        <ele>117.337929</ele>
        <time>2017-05-21T12:10:47Z</time>
      </trkpt>
      <trkpt lat="43.75887" lon="5.1568">
        <ele>117.03447</ele>
        <time>2017-05-21T12:10:51Z</time>
      </trkpt>
      <trkpt lat="43.75857" lon="5.15695">
        <ele>118.523422</ele>
        <time>2017-05-21T12:10:58Z</time>
      </trkpt>
      <trkpt lat="43.75852" lon="5.15693">
        <ele>118.363434</ele>
        <time>2017-05-21T12:11:10Z</time>
      </trkpt>
    </trkseg>
  </trk>
</gpx>